<?xml version="1.0" encoding="UTF-8" standalone="no" ?>
<gpx xmlns="http://www.topografix.com/GPX/1/1" xmlns:xsi="http://www.w3.org/2001/XMLSchema-instance" xsi:schemaLocation="http://www.topografix.com/GPX/1/1 http://www.topografix.com/GPX/1/1/gpx.xsd" version="1.1" creator="VisuGPX - https://www.visugpx.com">
  <metadata>
    <name>OMS CHENOVE Marche du vendredi 16 mars 2012 </name>
    <desc><![CDATA[Tour du Plateau]]></desc>
  </metadata>
  <trk>
    <name><![CDATA[OMS CHENOVE Marche du vendredi 16 mars 2012 _1]]></name>
    <trkseg>
      <trkpt lat="47.29245" lon="5.00587">
        <ele>269.808</ele>
        <time>2012-03-16T09:04:46Z</time>
      </trkpt>
      <trkpt lat="47.29252" lon="5.00577">
        <ele>269.728</ele>
        <time>2012-03-16T09:04:57Z</time>
      </trkpt>
      <trkpt lat="47.29258" lon="5.00558">
        <ele>270.578</ele>
        <time>2012-03-16T09:05:08Z</time>
      </trkpt>
      <trkpt lat="47.29263" lon="5.00533">
        <ele>269.825</ele>
        <time>2012-03-16T09:05:19Z</time>
      </trkpt>
      <trkpt lat="47.2927" lon="5.0052">
        <ele>271.103</ele>
        <time>2012-03-16T09:05:30Z</time>
      </trkpt>
      <trkpt lat="47.29272" lon="5.00498">
        <ele>269.778</ele>
        <time>2012-03-16T09:05:41Z</time>
      </trkpt>
      <trkpt lat="47.29277" lon="5.00475">
        <ele>273.755</ele>
        <time>2012-03-16T09:05:52Z</time>
      </trkpt>
      <trkpt lat="47.2928" lon="5.00453">
        <ele>273.558</ele>
        <time>2012-03-16T09:06:03Z</time>
      </trkpt>
      <trkpt lat="47.29287" lon="5.00433">
        <ele>275.232</ele>
        <time>2012-03-16T09:06:14Z</time>
      </trkpt>
      <trkpt lat="47.29292" lon="5.00412">
        <ele>276.501</ele>
        <time>2012-03-16T09:06:25Z</time>
      </trkpt>
      <trkpt lat="47.29293" lon="5.00392">
        <ele>277.828</ele>
        <time>2012-03-16T09:06:36Z</time>
      </trkpt>
      <trkpt lat="47.29298" lon="5.00372">
        <ele>278.952</ele>
        <time>2012-03-16T09:06:47Z</time>
      </trkpt>
      <trkpt lat="47.293" lon="5.00373">
        <ele>278.868</ele>
        <time>2012-03-16T09:06:58Z</time>
      </trkpt>
      <trkpt lat="47.29303" lon="5.00375">
        <ele>278.892</ele>
        <time>2012-03-16T09:07:09Z</time>
      </trkpt>
      <trkpt lat="47.29313" lon="5.00365">
        <ele>282.579</ele>
        <time>2012-03-16T09:07:20Z</time>
      </trkpt>
      <trkpt lat="47.29323" lon="5.00345">
        <ele>284.075</ele>
        <time>2012-03-16T09:07:31Z</time>
      </trkpt>
      <trkpt lat="47.29332" lon="5.00342">
        <ele>286.433</ele>
        <time>2012-03-16T09:07:42Z</time>
      </trkpt>
      <trkpt lat="47.29343" lon="5.00345">
        <ele>284.272</ele>
        <time>2012-03-16T09:07:53Z</time>
      </trkpt>
      <trkpt lat="47.29353" lon="5.00348">
        <ele>285.936</ele>
        <time>2012-03-16T09:08:04Z</time>
      </trkpt>
      <trkpt lat="47.29362" lon="5.00345">
        <ele>283.972</ele>
        <time>2012-03-16T09:08:15Z</time>
      </trkpt>
      <trkpt lat="47.29375" lon="5.0035">
        <ele>282.177</ele>
        <time>2012-03-16T09:08:26Z</time>
      </trkpt>
      <trkpt lat="47.29393" lon="5.00338">
        <ele>280.712</ele>
        <time>2012-03-16T09:08:37Z</time>
      </trkpt>
      <trkpt lat="47.29405" lon="5.00335">
        <ele>281.689</ele>
        <time>2012-03-16T09:08:48Z</time>
      </trkpt>
      <trkpt lat="47.29412" lon="5.00337">
        <ele>281.816</ele>
        <time>2012-03-16T09:08:59Z</time>
      </trkpt>
      <trkpt lat="47.29425" lon="5.00342">
        <ele>282.473</ele>
        <time>2012-03-16T09:09:10Z</time>
      </trkpt>
      <trkpt lat="47.29442" lon="5.00342">
        <ele>281.538</ele>
        <time>2012-03-16T09:09:21Z</time>
      </trkpt>
      <trkpt lat="47.29458" lon="5.00322">
        <ele>275.83</ele>
        <time>2012-03-16T09:09:32Z</time>
      </trkpt>
      <trkpt lat="47.29473" lon="5.00303">
        <ele>276.288</ele>
        <time>2012-03-16T09:09:43Z</time>
      </trkpt>
      <trkpt lat="47.29483" lon="5.00285">
        <ele>271.377</ele>
        <time>2012-03-16T09:09:54Z</time>
      </trkpt>
      <trkpt lat="47.29492" lon="5.00267">
        <ele>270.507</ele>
        <time>2012-03-16T09:10:05Z</time>
      </trkpt>
      <trkpt lat="47.29503" lon="5.00243">
        <ele>272.433</ele>
        <time>2012-03-16T09:10:16Z</time>
      </trkpt>
      <trkpt lat="47.29513" lon="5.00222">
        <ele>273.169</ele>
        <time>2012-03-16T09:10:27Z</time>
      </trkpt>
      <trkpt lat="47.29518" lon="5.002">
        <ele>275.302</ele>
        <time>2012-03-16T09:10:38Z</time>
      </trkpt>
      <trkpt lat="47.29535" lon="5.00192">
        <ele>276.351</ele>
        <time>2012-03-16T09:10:49Z</time>
      </trkpt>
      <trkpt lat="47.2955" lon="5.0018">
        <ele>280.846</ele>
        <time>2012-03-16T09:11:00Z</time>
      </trkpt>
      <trkpt lat="47.29562" lon="5.00165">
        <ele>284.433</ele>
        <time>2012-03-16T09:11:11Z</time>
      </trkpt>
      <trkpt lat="47.29573" lon="5.00145">
        <ele>285.32</ele>
        <time>2012-03-16T09:11:22Z</time>
      </trkpt>
      <trkpt lat="47.29583" lon="5.00127">
        <ele>286.864</ele>
        <time>2012-03-16T09:11:33Z</time>
      </trkpt>
      <trkpt lat="47.29592" lon="5.0011">
        <ele>291.477</ele>
        <time>2012-03-16T09:11:44Z</time>
      </trkpt>
      <trkpt lat="47.29597" lon="5.00087">
        <ele>295.946</ele>
        <time>2012-03-16T09:11:55Z</time>
      </trkpt>
      <trkpt lat="47.29603" lon="5.00072">
        <ele>294.119</ele>
        <time>2012-03-16T09:12:06Z</time>
      </trkpt>
      <trkpt lat="47.29613" lon="5.00053">
        <ele>295.332</ele>
        <time>2012-03-16T09:12:17Z</time>
      </trkpt>
      <trkpt lat="47.29627" lon="5.00055">
        <ele>290.827</ele>
        <time>2012-03-16T09:12:28Z</time>
      </trkpt>
      <trkpt lat="47.29637" lon="5.0006">
        <ele>289.83</ele>
        <time>2012-03-16T09:12:39Z</time>
      </trkpt>
      <trkpt lat="47.2965" lon="5.00065">
        <ele>285.996</ele>
        <time>2012-03-16T09:12:50Z</time>
      </trkpt>
      <trkpt lat="47.29667" lon="5.0007">
        <ele>285.387</ele>
        <time>2012-03-16T09:13:01Z</time>
      </trkpt>
      <trkpt lat="47.2968" lon="5.00073">
        <ele>287.055</ele>
        <time>2012-03-16T09:13:12Z</time>
      </trkpt>
      <trkpt lat="47.29697" lon="5.00077">
        <ele>286.97</ele>
        <time>2012-03-16T09:13:23Z</time>
      </trkpt>
      <trkpt lat="47.29713" lon="5.0008">
        <ele>286.826</ele>
        <time>2012-03-16T09:13:34Z</time>
      </trkpt>
      <trkpt lat="47.29733" lon="5.00085">
        <ele>285.098</ele>
        <time>2012-03-16T09:13:45Z</time>
      </trkpt>
      <trkpt lat="47.29748" lon="5.00088">
        <ele>285.629</ele>
        <time>2012-03-16T09:13:56Z</time>
      </trkpt>
      <trkpt lat="47.2976" lon="5.00093">
        <ele>283.969</ele>
        <time>2012-03-16T09:14:07Z</time>
      </trkpt>
      <trkpt lat="47.29775" lon="5.001">
        <ele>283.271</ele>
        <time>2012-03-16T09:14:18Z</time>
      </trkpt>
      <trkpt lat="47.29788" lon="5.00102">
        <ele>284.806</ele>
        <time>2012-03-16T09:14:29Z</time>
      </trkpt>
      <trkpt lat="47.29807" lon="5.00108">
        <ele>284.278</ele>
        <time>2012-03-16T09:14:40Z</time>
      </trkpt>
      <trkpt lat="47.29823" lon="5.00113">
        <ele>284.428</ele>
        <time>2012-03-16T09:14:51Z</time>
      </trkpt>
      <trkpt lat="47.2983" lon="5.00115">
        <ele>286.101</ele>
        <time>2012-03-16T09:15:02Z</time>
      </trkpt>
      <trkpt lat="47.29847" lon="5.0012">
        <ele>287.584</ele>
        <time>2012-03-16T09:15:13Z</time>
      </trkpt>
      <trkpt lat="47.29858" lon="5.00122">
        <ele>288.92</ele>
        <time>2012-03-16T09:15:24Z</time>
      </trkpt>
      <trkpt lat="47.29877" lon="5.0012">
        <ele>289.44</ele>
        <time>2012-03-16T09:15:35Z</time>
      </trkpt>
      <trkpt lat="47.29893" lon="5.0012">
        <ele>291.681</ele>
        <time>2012-03-16T09:15:46Z</time>
      </trkpt>
      <trkpt lat="47.2991" lon="5.00117">
        <ele>294.239</ele>
        <time>2012-03-16T09:15:57Z</time>
      </trkpt>
      <trkpt lat="47.29923" lon="5.00117">
        <ele>294.204</ele>
        <time>2012-03-16T09:16:08Z</time>
      </trkpt>
      <trkpt lat="47.2994" lon="5.00117">
        <ele>294.269</ele>
        <time>2012-03-16T09:16:19Z</time>
      </trkpt>
      <trkpt lat="47.2996" lon="5.00117">
        <ele>293.983</ele>
        <time>2012-03-16T09:16:30Z</time>
      </trkpt>
      <trkpt lat="47.29973" lon="5.00117">
        <ele>296.062</ele>
        <time>2012-03-16T09:16:41Z</time>
      </trkpt>
      <trkpt lat="47.29992" lon="5.00117">
        <ele>294.223</ele>
        <time>2012-03-16T09:16:52Z</time>
      </trkpt>
      <trkpt lat="47.3" lon="5.0012">
        <ele>294.779</ele>
        <time>2012-03-16T09:17:03Z</time>
      </trkpt>
      <trkpt lat="47.30007" lon="5.00122">
        <ele>296.397</ele>
        <time>2012-03-16T09:17:14Z</time>
      </trkpt>
      <trkpt lat="47.30015" lon="5.00125">
        <ele>297.445</ele>
        <time>2012-03-16T09:17:25Z</time>
      </trkpt>
      <trkpt lat="47.30023" lon="5.00137">
        <ele>299.306</ele>
        <time>2012-03-16T09:17:36Z</time>
      </trkpt>
      <trkpt lat="47.30033" lon="5.00142">
        <ele>299.983</ele>
        <time>2012-03-16T09:17:47Z</time>
      </trkpt>
      <trkpt lat="47.30047" lon="5.00153">
        <ele>297.976</ele>
        <time>2012-03-16T09:17:58Z</time>
      </trkpt>
      <trkpt lat="47.30055" lon="5.0016">
        <ele>297.835</ele>
        <time>2012-03-16T09:18:09Z</time>
      </trkpt>
      <trkpt lat="47.30067" lon="5.00175">
        <ele>300.175</ele>
        <time>2012-03-16T09:18:20Z</time>
      </trkpt>
      <trkpt lat="47.30078" lon="5.00185">
        <ele>301.176</ele>
        <time>2012-03-16T09:18:31Z</time>
      </trkpt>
      <trkpt lat="47.30088" lon="5.00193">
        <ele>304.732</ele>
        <time>2012-03-16T09:18:42Z</time>
      </trkpt>
      <trkpt lat="47.30105" lon="5.00208">
        <ele>304.004</ele>
        <time>2012-03-16T09:18:53Z</time>
      </trkpt>
      <trkpt lat="47.30118" lon="5.0022">
        <ele>303.153</ele>
        <time>2012-03-16T09:19:04Z</time>
      </trkpt>
      <trkpt lat="47.30133" lon="5.00222">
        <ele>307.358</ele>
        <time>2012-03-16T09:19:15Z</time>
      </trkpt>
      <trkpt lat="47.30142" lon="5.00215">
        <ele>304.451</ele>
        <time>2012-03-16T09:19:26Z</time>
      </trkpt>
      <trkpt lat="47.30143" lon="5.00208">
        <ele>305.085</ele>
        <time>2012-03-16T09:19:37Z</time>
      </trkpt>
      <trkpt lat="47.30148" lon="5.002">
        <ele>311.523</ele>
        <time>2012-03-16T09:19:48Z</time>
      </trkpt>
      <trkpt lat="47.30153" lon="5.00192">
        <ele>314.034</ele>
        <time>2012-03-16T09:19:59Z</time>
      </trkpt>
      <trkpt lat="47.30155" lon="5.0019">
        <ele>312.155</ele>
        <time>2012-03-16T09:20:10Z</time>
      </trkpt>
      <trkpt lat="47.30155" lon="5.0018">
        <ele>313.934</ele>
        <time>2012-03-16T09:20:21Z</time>
      </trkpt>
      <trkpt lat="47.30155" lon="5.0017">
        <ele>313.139</ele>
        <time>2012-03-16T09:20:32Z</time>
      </trkpt>
      <trkpt lat="47.30158" lon="5.00165">
        <ele>314.268</ele>
        <time>2012-03-16T09:20:43Z</time>
      </trkpt>
      <trkpt lat="47.30165" lon="5.00153">
        <ele>316.568</ele>
        <time>2012-03-16T09:20:54Z</time>
      </trkpt>
      <trkpt lat="47.30168" lon="5.00143">
        <ele>318.491</ele>
        <time>2012-03-16T09:21:05Z</time>
      </trkpt>
      <trkpt lat="47.30162" lon="5.00127">
        <ele>320.705</ele>
        <time>2012-03-16T09:21:16Z</time>
      </trkpt>
      <trkpt lat="47.30163" lon="5.00122">
        <ele>322.747</ele>
        <time>2012-03-16T09:21:27Z</time>
      </trkpt>
      <trkpt lat="47.30167" lon="5.00107">
        <ele>322.098</ele>
        <time>2012-03-16T09:21:38Z</time>
      </trkpt>
      <trkpt lat="47.30167" lon="5.00087">
        <ele>322.606</ele>
        <time>2012-03-16T09:21:49Z</time>
      </trkpt>
      <trkpt lat="47.3016" lon="5.00067">
        <ele>323.263</ele>
        <time>2012-03-16T09:22:00Z</time>
      </trkpt>
      <trkpt lat="47.30158" lon="5.00047">
        <ele>324.003</ele>
        <time>2012-03-16T09:22:11Z</time>
      </trkpt>
      <trkpt lat="47.30152" lon="5.0003">
        <ele>326.89</ele>
        <time>2012-03-16T09:22:22Z</time>
      </trkpt>
      <trkpt lat="47.30152" lon="5.00008">
        <ele>327.849</ele>
        <time>2012-03-16T09:22:33Z</time>
      </trkpt>
      <trkpt lat="47.3015" lon="5.00007">
        <ele>329.157</ele>
        <time>2012-03-16T09:22:44Z</time>
      </trkpt>
      <trkpt lat="47.3015" lon="5.00007">
        <ele>329.157</ele>
        <time>2012-03-16T09:22:55Z</time>
      </trkpt>
      <trkpt lat="47.3015" lon="5.00007">
        <ele>329.157</ele>
        <time>2012-03-16T09:23:06Z</time>
      </trkpt>
      <trkpt lat="47.3015" lon="5.00007">
        <ele>329.157</ele>
        <time>2012-03-16T09:23:17Z</time>
      </trkpt>
      <trkpt lat="47.3015" lon="5.00007">
        <ele>329.157</ele>
        <time>2012-03-16T09:23:28Z</time>
      </trkpt>
      <trkpt lat="47.3015" lon="5.00007">
        <ele>329.157</ele>
        <time>2012-03-16T09:23:39Z</time>
      </trkpt>
      <trkpt lat="47.3015" lon="5.00007">
        <ele>329.157</ele>
        <time>2012-03-16T09:23:50Z</time>
      </trkpt>
      <trkpt lat="47.30148" lon="4.9999">
        <ele>330.191</ele>
        <time>2012-03-16T09:24:01Z</time>
      </trkpt>
      <trkpt lat="47.30147" lon="4.9997">
        <ele>331.008</ele>
        <time>2012-03-16T09:24:12Z</time>
      </trkpt>
      <trkpt lat="47.3014" lon="4.99947">
        <ele>328.861</ele>
        <time>2012-03-16T09:24:23Z</time>
      </trkpt>
      <trkpt lat="47.30142" lon="4.99933">
        <ele>326.853</ele>
        <time>2012-03-16T09:24:34Z</time>
      </trkpt>
      <trkpt lat="47.30145" lon="4.99912">
        <ele>325.028</ele>
        <time>2012-03-16T09:24:45Z</time>
      </trkpt>
      <trkpt lat="47.30145" lon="4.99888">
        <ele>329.085</ele>
        <time>2012-03-16T09:24:56Z</time>
      </trkpt>
      <trkpt lat="47.30147" lon="4.99865">
        <ele>333.54</ele>
        <time>2012-03-16T09:25:07Z</time>
      </trkpt>
      <trkpt lat="47.30148" lon="4.99843">
        <ele>335.577</ele>
        <time>2012-03-16T09:25:18Z</time>
      </trkpt>
      <trkpt lat="47.30153" lon="4.99817">
        <ele>337.299</ele>
        <time>2012-03-16T09:25:29Z</time>
      </trkpt>
      <trkpt lat="47.30157" lon="4.99795">
        <ele>336.798</ele>
        <time>2012-03-16T09:25:40Z</time>
      </trkpt>
      <trkpt lat="47.30158" lon="4.99775">
        <ele>337.097</ele>
        <time>2012-03-16T09:25:51Z</time>
      </trkpt>
      <trkpt lat="47.3016" lon="4.99762">
        <ele>337.527</ele>
        <time>2012-03-16T09:26:02Z</time>
      </trkpt>
      <trkpt lat="47.3016" lon="4.99747">
        <ele>340.061</ele>
        <time>2012-03-16T09:26:13Z</time>
      </trkpt>
      <trkpt lat="47.30157" lon="4.99725">
        <ele>344.606</ele>
        <time>2012-03-16T09:26:24Z</time>
      </trkpt>
      <trkpt lat="47.30157" lon="4.99705">
        <ele>348.552</ele>
        <time>2012-03-16T09:26:35Z</time>
      </trkpt>
      <trkpt lat="47.3016" lon="4.99692">
        <ele>349.593</ele>
        <time>2012-03-16T09:26:46Z</time>
      </trkpt>
      <trkpt lat="47.30163" lon="4.99667">
        <ele>350.435</ele>
        <time>2012-03-16T09:26:57Z</time>
      </trkpt>
      <trkpt lat="47.30168" lon="4.99642">
        <ele>351.557</ele>
        <time>2012-03-16T09:27:08Z</time>
      </trkpt>
      <trkpt lat="47.30175" lon="4.99622">
        <ele>349.508</ele>
        <time>2012-03-16T09:27:19Z</time>
      </trkpt>
      <trkpt lat="47.30175" lon="4.99597">
        <ele>352.323</ele>
        <time>2012-03-16T09:27:30Z</time>
      </trkpt>
      <trkpt lat="47.30175" lon="4.99583">
        <ele>354.548</ele>
        <time>2012-03-16T09:27:41Z</time>
      </trkpt>
      <trkpt lat="47.3018" lon="4.99567">
        <ele>360.589</ele>
        <time>2012-03-16T09:27:52Z</time>
      </trkpt>
      <trkpt lat="47.30185" lon="4.99557">
        <ele>361.645</ele>
        <time>2012-03-16T09:28:03Z</time>
      </trkpt>
      <trkpt lat="47.30187" lon="4.99543">
        <ele>359.264</ele>
        <time>2012-03-16T09:28:14Z</time>
      </trkpt>
      <trkpt lat="47.30188" lon="4.99527">
        <ele>360.973</ele>
        <time>2012-03-16T09:28:25Z</time>
      </trkpt>
      <trkpt lat="47.3019" lon="4.99525">
        <ele>359.775</ele>
        <time>2012-03-16T09:28:36Z</time>
      </trkpt>
      <trkpt lat="47.30193" lon="4.99498">
        <ele>361.64</ele>
        <time>2012-03-16T09:28:47Z</time>
      </trkpt>
      <trkpt lat="47.30195" lon="4.99493">
        <ele>361.978</ele>
        <time>2012-03-16T09:28:58Z</time>
      </trkpt>
      <trkpt lat="47.30195" lon="4.99493">
        <ele>361.978</ele>
        <time>2012-03-16T09:29:09Z</time>
      </trkpt>
      <trkpt lat="47.30195" lon="4.99493">
        <ele>361.978</ele>
        <time>2012-03-16T09:29:20Z</time>
      </trkpt>
      <trkpt lat="47.30195" lon="4.99478">
        <ele>360.08</ele>
        <time>2012-03-16T09:29:31Z</time>
      </trkpt>
      <trkpt lat="47.30195" lon="4.99478">
        <ele>360.08</ele>
        <time>2012-03-16T09:29:42Z</time>
      </trkpt>
      <trkpt lat="47.30195" lon="4.99478">
        <ele>360.08</ele>
        <time>2012-03-16T09:29:53Z</time>
      </trkpt>
      <trkpt lat="47.30195" lon="4.99477">
        <ele>361.203</ele>
        <time>2012-03-16T09:30:04Z</time>
      </trkpt>
      <trkpt lat="47.3019" lon="4.99462">
        <ele>365.049</ele>
        <time>2012-03-16T09:30:15Z</time>
      </trkpt>
      <trkpt lat="47.30182" lon="4.99445">
        <ele>363.047</ele>
        <time>2012-03-16T09:30:26Z</time>
      </trkpt>
      <trkpt lat="47.30168" lon="4.99425">
        <ele>364.921</ele>
        <time>2012-03-16T09:30:37Z</time>
      </trkpt>
      <trkpt lat="47.30163" lon="4.99413">
        <ele>364.702</ele>
        <time>2012-03-16T09:30:48Z</time>
      </trkpt>
      <trkpt lat="47.30147" lon="4.99398">
        <ele>364.328</ele>
        <time>2012-03-16T09:30:59Z</time>
      </trkpt>
      <trkpt lat="47.30138" lon="4.99387">
        <ele>363.881</ele>
        <time>2012-03-16T09:31:10Z</time>
      </trkpt>
      <trkpt lat="47.30135" lon="4.99363">
        <ele>365.528</ele>
        <time>2012-03-16T09:31:21Z</time>
      </trkpt>
      <trkpt lat="47.30132" lon="4.99348">
        <ele>365.606</ele>
        <time>2012-03-16T09:31:32Z</time>
      </trkpt>
      <trkpt lat="47.30128" lon="4.99327">
        <ele>366.749</ele>
        <time>2012-03-16T09:31:43Z</time>
      </trkpt>
      <trkpt lat="47.30127" lon="4.99307">
        <ele>367.046</ele>
        <time>2012-03-16T09:31:54Z</time>
      </trkpt>
      <trkpt lat="47.30122" lon="4.9929">
        <ele>368.845</ele>
        <time>2012-03-16T09:32:05Z</time>
      </trkpt>
      <trkpt lat="47.30123" lon="4.99277">
        <ele>369.565</ele>
        <time>2012-03-16T09:32:16Z</time>
      </trkpt>
      <trkpt lat="47.30132" lon="4.99258">
        <ele>370.221</ele>
        <time>2012-03-16T09:32:27Z</time>
      </trkpt>
      <trkpt lat="47.30127" lon="4.99248">
        <ele>372.538</ele>
        <time>2012-03-16T09:32:38Z</time>
      </trkpt>
      <trkpt lat="47.30123" lon="4.99227">
        <ele>377.119</ele>
        <time>2012-03-16T09:32:49Z</time>
      </trkpt>
      <trkpt lat="47.30108" lon="4.99205">
        <ele>382.814</ele>
        <time>2012-03-16T09:33:00Z</time>
      </trkpt>
      <trkpt lat="47.30102" lon="4.99195">
        <ele>383.952</ele>
        <time>2012-03-16T09:33:11Z</time>
      </trkpt>
      <trkpt lat="47.30095" lon="4.99175">
        <ele>382.89</ele>
        <time>2012-03-16T09:33:22Z</time>
      </trkpt>
      <trkpt lat="47.30093" lon="4.99165">
        <ele>380.56</ele>
        <time>2012-03-16T09:33:33Z</time>
      </trkpt>
      <trkpt lat="47.30093" lon="4.99165">
        <ele>380.56</ele>
        <time>2012-03-16T09:33:44Z</time>
      </trkpt>
      <trkpt lat="47.30097" lon="4.99157">
        <ele>377.609</ele>
        <time>2012-03-16T09:33:55Z</time>
      </trkpt>
      <trkpt lat="47.30102" lon="4.9914">
        <ele>379.252</ele>
        <time>2012-03-16T09:34:06Z</time>
      </trkpt>
      <trkpt lat="47.30108" lon="4.99137">
        <ele>382.311</ele>
        <time>2012-03-16T09:34:17Z</time>
      </trkpt>
      <trkpt lat="47.3011" lon="4.99117">
        <ele>384.197</ele>
        <time>2012-03-16T09:34:28Z</time>
      </trkpt>
      <trkpt lat="47.30115" lon="4.99092">
        <ele>379.225</ele>
        <time>2012-03-16T09:34:39Z</time>
      </trkpt>
      <trkpt lat="47.30117" lon="4.99068">
        <ele>378.381</ele>
        <time>2012-03-16T09:34:50Z</time>
      </trkpt>
      <trkpt lat="47.30113" lon="4.9906">
        <ele>377.527</ele>
        <time>2012-03-16T09:35:01Z</time>
      </trkpt>
      <trkpt lat="47.301" lon="4.99047">
        <ele>376.177</ele>
        <time>2012-03-16T09:35:12Z</time>
      </trkpt>
      <trkpt lat="47.30088" lon="4.99032">
        <ele>376.098</ele>
        <time>2012-03-16T09:35:23Z</time>
      </trkpt>
      <trkpt lat="47.30083" lon="4.99008">
        <ele>375.31</ele>
        <time>2012-03-16T09:35:34Z</time>
      </trkpt>
      <trkpt lat="47.30078" lon="4.98982">
        <ele>376.56</ele>
        <time>2012-03-16T09:35:45Z</time>
      </trkpt>
      <trkpt lat="47.30075" lon="4.98955">
        <ele>374.32</ele>
        <time>2012-03-16T09:35:56Z</time>
      </trkpt>
      <trkpt lat="47.3007" lon="4.9893">
        <ele>374.42</ele>
        <time>2012-03-16T09:36:07Z</time>
      </trkpt>
      <trkpt lat="47.30068" lon="4.98907">
        <ele>371.694</ele>
        <time>2012-03-16T09:36:18Z</time>
      </trkpt>
      <trkpt lat="47.30065" lon="4.98878">
        <ele>372.212</ele>
        <time>2012-03-16T09:36:29Z</time>
      </trkpt>
      <trkpt lat="47.30062" lon="4.98848">
        <ele>373.972</ele>
        <time>2012-03-16T09:36:40Z</time>
      </trkpt>
      <trkpt lat="47.30058" lon="4.98823">
        <ele>377.222</ele>
        <time>2012-03-16T09:36:51Z</time>
      </trkpt>
      <trkpt lat="47.30052" lon="4.98795">
        <ele>383.18</ele>
        <time>2012-03-16T09:37:02Z</time>
      </trkpt>
      <trkpt lat="47.30047" lon="4.98773">
        <ele>380.815</ele>
        <time>2012-03-16T09:37:13Z</time>
      </trkpt>
      <trkpt lat="47.30042" lon="4.98748">
        <ele>381.191</ele>
        <time>2012-03-16T09:37:24Z</time>
      </trkpt>
      <trkpt lat="47.30043" lon="4.9872">
        <ele>382.078</ele>
        <time>2012-03-16T09:37:35Z</time>
      </trkpt>
      <trkpt lat="47.30053" lon="4.987">
        <ele>380.603</ele>
        <time>2012-03-16T09:37:46Z</time>
      </trkpt>
      <trkpt lat="47.30067" lon="4.98685">
        <ele>380.477</ele>
        <time>2012-03-16T09:37:57Z</time>
      </trkpt>
      <trkpt lat="47.30082" lon="4.98668">
        <ele>382.752</ele>
        <time>2012-03-16T09:38:08Z</time>
      </trkpt>
      <trkpt lat="47.30095" lon="4.9866">
        <ele>383.881</ele>
        <time>2012-03-16T09:38:19Z</time>
      </trkpt>
      <trkpt lat="47.3011" lon="4.98665">
        <ele>381.79</ele>
        <time>2012-03-16T09:38:30Z</time>
      </trkpt>
      <trkpt lat="47.30125" lon="4.9868">
        <ele>376.924</ele>
        <time>2012-03-16T09:38:41Z</time>
      </trkpt>
      <trkpt lat="47.30138" lon="4.98695">
        <ele>375.708</ele>
        <time>2012-03-16T09:38:52Z</time>
      </trkpt>
      <trkpt lat="47.30148" lon="4.9871">
        <ele>376.886</ele>
        <time>2012-03-16T09:39:03Z</time>
      </trkpt>
      <trkpt lat="47.3016" lon="4.9873">
        <ele>375.775</ele>
        <time>2012-03-16T09:39:14Z</time>
      </trkpt>
      <trkpt lat="47.30172" lon="4.98745">
        <ele>375.698</ele>
        <time>2012-03-16T09:39:25Z</time>
      </trkpt>
      <trkpt lat="47.30185" lon="4.9876">
        <ele>376.001</ele>
        <time>2012-03-16T09:39:36Z</time>
      </trkpt>
      <trkpt lat="47.30195" lon="4.98773">
        <ele>374.44</ele>
        <time>2012-03-16T09:39:47Z</time>
      </trkpt>
      <trkpt lat="47.30203" lon="4.98792">
        <ele>373.577</ele>
        <time>2012-03-16T09:39:58Z</time>
      </trkpt>
      <trkpt lat="47.30212" lon="4.98808">
        <ele>373.986</ele>
        <time>2012-03-16T09:40:09Z</time>
      </trkpt>
      <trkpt lat="47.30227" lon="4.98822">
        <ele>373.189</ele>
        <time>2012-03-16T09:40:20Z</time>
      </trkpt>
      <trkpt lat="47.30242" lon="4.98843">
        <ele>369.837</ele>
        <time>2012-03-16T09:40:31Z</time>
      </trkpt>
      <trkpt lat="47.30252" lon="4.98848">
        <ele>371.584</ele>
        <time>2012-03-16T09:40:42Z</time>
      </trkpt>
      <trkpt lat="47.30267" lon="4.98845">
        <ele>372.383</ele>
        <time>2012-03-16T09:40:53Z</time>
      </trkpt>
      <trkpt lat="47.30277" lon="4.98835">
        <ele>371.411</ele>
        <time>2012-03-16T09:41:04Z</time>
      </trkpt>
      <trkpt lat="47.30278" lon="4.98825">
        <ele>371.34</ele>
        <time>2012-03-16T09:41:15Z</time>
      </trkpt>
      <trkpt lat="47.30283" lon="4.98818">
        <ele>368.356</ele>
        <time>2012-03-16T09:41:26Z</time>
      </trkpt>
      <trkpt lat="47.3029" lon="4.98813">
        <ele>366.156</ele>
        <time>2012-03-16T09:41:37Z</time>
      </trkpt>
      <trkpt lat="47.30292" lon="4.9883">
        <ele>364.389</ele>
        <time>2012-03-16T09:41:48Z</time>
      </trkpt>
      <trkpt lat="47.30298" lon="4.98827">
        <ele>366.036</ele>
        <time>2012-03-16T09:41:59Z</time>
      </trkpt>
      <trkpt lat="47.30308" lon="4.9882">
        <ele>367.557</ele>
        <time>2012-03-16T09:42:10Z</time>
      </trkpt>
      <trkpt lat="47.30317" lon="4.9881">
        <ele>367.744</ele>
        <time>2012-03-16T09:42:21Z</time>
      </trkpt>
      <trkpt lat="47.30328" lon="4.98795">
        <ele>366.094</ele>
        <time>2012-03-16T09:42:32Z</time>
      </trkpt>
      <trkpt lat="47.30337" lon="4.98785">
        <ele>366.165</ele>
        <time>2012-03-16T09:42:43Z</time>
      </trkpt>
      <trkpt lat="47.30352" lon="4.98777">
        <ele>362.556</ele>
        <time>2012-03-16T09:42:54Z</time>
      </trkpt>
      <trkpt lat="47.30365" lon="4.98765">
        <ele>358.649</ele>
        <time>2012-03-16T09:43:05Z</time>
      </trkpt>
      <trkpt lat="47.30378" lon="4.98755">
        <ele>357.157</ele>
        <time>2012-03-16T09:43:16Z</time>
      </trkpt>
      <trkpt lat="47.30387" lon="4.98745">
        <ele>354.118</ele>
        <time>2012-03-16T09:43:27Z</time>
      </trkpt>
      <trkpt lat="47.30403" lon="4.98735">
        <ele>351.407</ele>
        <time>2012-03-16T09:43:38Z</time>
      </trkpt>
      <trkpt lat="47.30417" lon="4.98725">
        <ele>353.035</ele>
        <time>2012-03-16T09:43:49Z</time>
      </trkpt>
      <trkpt lat="47.30427" lon="4.98717">
        <ele>356.707</ele>
        <time>2012-03-16T09:44:00Z</time>
      </trkpt>
      <trkpt lat="47.30443" lon="4.98707">
        <ele>354.49</ele>
        <time>2012-03-16T09:44:11Z</time>
      </trkpt>
      <trkpt lat="47.30457" lon="4.98698">
        <ele>350.816</ele>
        <time>2012-03-16T09:44:22Z</time>
      </trkpt>
      <trkpt lat="47.30462" lon="4.98675">
        <ele>349.79</ele>
        <time>2012-03-16T09:44:33Z</time>
      </trkpt>
      <trkpt lat="47.30467" lon="4.98655">
        <ele>350.558</ele>
        <time>2012-03-16T09:44:44Z</time>
      </trkpt>
      <trkpt lat="47.30467" lon="4.98628">
        <ele>348.56</ele>
        <time>2012-03-16T09:44:55Z</time>
      </trkpt>
      <trkpt lat="47.30462" lon="4.98605">
        <ele>349.885</ele>
        <time>2012-03-16T09:45:06Z</time>
      </trkpt>
      <trkpt lat="47.30455" lon="4.98593">
        <ele>354.234</ele>
        <time>2012-03-16T09:45:17Z</time>
      </trkpt>
      <trkpt lat="47.30448" lon="4.9857">
        <ele>355.44</ele>
        <time>2012-03-16T09:45:28Z</time>
      </trkpt>
      <trkpt lat="47.30445" lon="4.98555">
        <ele>354.91</ele>
        <time>2012-03-16T09:45:39Z</time>
      </trkpt>
      <trkpt lat="47.3044" lon="4.98528">
        <ele>354.388</ele>
        <time>2012-03-16T09:45:50Z</time>
      </trkpt>
      <trkpt lat="47.30437" lon="4.98508">
        <ele>352.991</ele>
        <time>2012-03-16T09:46:01Z</time>
      </trkpt>
      <trkpt lat="47.30433" lon="4.98487">
        <ele>353.306</ele>
        <time>2012-03-16T09:46:12Z</time>
      </trkpt>
      <trkpt lat="47.30428" lon="4.9847">
        <ele>355.295</ele>
        <time>2012-03-16T09:46:23Z</time>
      </trkpt>
      <trkpt lat="47.30423" lon="4.9845">
        <ele>359.517</ele>
        <time>2012-03-16T09:46:34Z</time>
      </trkpt>
      <trkpt lat="47.3042" lon="4.98427">
        <ele>360.865</ele>
        <time>2012-03-16T09:46:45Z</time>
      </trkpt>
      <trkpt lat="47.30418" lon="4.98405">
        <ele>363.334</ele>
        <time>2012-03-16T09:46:56Z</time>
      </trkpt>
      <trkpt lat="47.30418" lon="4.98405">
        <ele>364.26</ele>
        <time>2012-03-16T09:47:07Z</time>
      </trkpt>
      <trkpt lat="47.30418" lon="4.98405">
        <ele>364.26</ele>
        <time>2012-03-16T09:47:18Z</time>
      </trkpt>
      <trkpt lat="47.3042" lon="4.98402">
        <ele>362.392</ele>
        <time>2012-03-16T09:47:29Z</time>
      </trkpt>
      <trkpt lat="47.3042" lon="4.98402">
        <ele>362.177</ele>
        <time>2012-03-16T09:47:40Z</time>
      </trkpt>
      <trkpt lat="47.3042" lon="4.98402">
        <ele>362.177</ele>
        <time>2012-03-16T09:47:51Z</time>
      </trkpt>
      <trkpt lat="47.3042" lon="4.98402">
        <ele>362.177</ele>
        <time>2012-03-16T09:48:02Z</time>
      </trkpt>
      <trkpt lat="47.3042" lon="4.98402">
        <ele>362.177</ele>
        <time>2012-03-16T09:48:13Z</time>
      </trkpt>
      <trkpt lat="47.3042" lon="4.984">
        <ele>362.378</ele>
        <time>2012-03-16T09:48:24Z</time>
      </trkpt>
      <trkpt lat="47.3042" lon="4.984">
        <ele>362.378</ele>
        <time>2012-03-16T09:48:35Z</time>
      </trkpt>
      <trkpt lat="47.3042" lon="4.984">
        <ele>362.378</ele>
        <time>2012-03-16T09:48:46Z</time>
      </trkpt>
      <trkpt lat="47.3042" lon="4.98398">
        <ele>363.116</ele>
        <time>2012-03-16T09:48:57Z</time>
      </trkpt>
      <trkpt lat="47.3042" lon="4.98398">
        <ele>363.116</ele>
        <time>2012-03-16T09:49:08Z</time>
      </trkpt>
      <trkpt lat="47.3042" lon="4.98398">
        <ele>363.116</ele>
        <time>2012-03-16T09:49:19Z</time>
      </trkpt>
      <trkpt lat="47.3042" lon="4.98398">
        <ele>363.116</ele>
        <time>2012-03-16T09:49:30Z</time>
      </trkpt>
      <trkpt lat="47.3042" lon="4.98398">
        <ele>363.116</ele>
        <time>2012-03-16T09:49:41Z</time>
      </trkpt>
      <trkpt lat="47.30417" lon="4.98392">
        <ele>359.775</ele>
        <time>2012-03-16T09:49:52Z</time>
      </trkpt>
      <trkpt lat="47.30408" lon="4.98383">
        <ele>361.305</ele>
        <time>2012-03-16T09:50:03Z</time>
      </trkpt>
      <trkpt lat="47.30402" lon="4.98377">
        <ele>361.995</ele>
        <time>2012-03-16T09:50:14Z</time>
      </trkpt>
      <trkpt lat="47.30395" lon="4.98367">
        <ele>360.679</ele>
        <time>2012-03-16T09:50:25Z</time>
      </trkpt>
      <trkpt lat="47.30388" lon="4.98358">
        <ele>359.668</ele>
        <time>2012-03-16T09:50:36Z</time>
      </trkpt>
      <trkpt lat="47.30375" lon="4.98342">
        <ele>358.9</ele>
        <time>2012-03-16T09:50:47Z</time>
      </trkpt>
      <trkpt lat="47.3036" lon="4.98325">
        <ele>358.906</ele>
        <time>2012-03-16T09:50:58Z</time>
      </trkpt>
      <trkpt lat="47.30348" lon="4.9832">
        <ele>359.629</ele>
        <time>2012-03-16T09:51:09Z</time>
      </trkpt>
      <trkpt lat="47.30342" lon="4.98315">
        <ele>359.74</ele>
        <time>2012-03-16T09:51:20Z</time>
      </trkpt>
      <trkpt lat="47.30328" lon="4.98308">
        <ele>361.981</ele>
        <time>2012-03-16T09:51:31Z</time>
      </trkpt>
      <trkpt lat="47.30317" lon="4.98302">
        <ele>361.416</ele>
        <time>2012-03-16T09:51:42Z</time>
      </trkpt>
      <trkpt lat="47.30307" lon="4.98295">
        <ele>363.598</ele>
        <time>2012-03-16T09:51:53Z</time>
      </trkpt>
      <trkpt lat="47.30295" lon="4.98285">
        <ele>365.053</ele>
        <time>2012-03-16T09:52:04Z</time>
      </trkpt>
      <trkpt lat="47.30287" lon="4.98273">
        <ele>369.565</ele>
        <time>2012-03-16T09:52:15Z</time>
      </trkpt>
      <trkpt lat="47.30272" lon="4.98267">
        <ele>367.037</ele>
        <time>2012-03-16T09:52:26Z</time>
      </trkpt>
      <trkpt lat="47.30263" lon="4.9826">
        <ele>366.219</ele>
        <time>2012-03-16T09:52:37Z</time>
      </trkpt>
      <trkpt lat="47.30252" lon="4.98253">
        <ele>368.329</ele>
        <time>2012-03-16T09:52:48Z</time>
      </trkpt>
      <trkpt lat="47.30238" lon="4.98245">
        <ele>367.38</ele>
        <time>2012-03-16T09:52:59Z</time>
      </trkpt>
      <trkpt lat="47.30227" lon="4.98237">
        <ele>368.98</ele>
        <time>2012-03-16T09:53:10Z</time>
      </trkpt>
      <trkpt lat="47.30215" lon="4.98222">
        <ele>371.86</ele>
        <time>2012-03-16T09:53:21Z</time>
      </trkpt>
      <trkpt lat="47.30212" lon="4.98218">
        <ele>372.965</ele>
        <time>2012-03-16T09:53:32Z</time>
      </trkpt>
      <trkpt lat="47.30207" lon="4.98215">
        <ele>372.597</ele>
        <time>2012-03-16T09:53:43Z</time>
      </trkpt>
      <trkpt lat="47.30198" lon="4.9821">
        <ele>371.56</ele>
        <time>2012-03-16T09:53:54Z</time>
      </trkpt>
      <trkpt lat="47.30202" lon="4.982">
        <ele>370.061</ele>
        <time>2012-03-16T09:54:05Z</time>
      </trkpt>
      <trkpt lat="47.30207" lon="4.98195">
        <ele>367.85</ele>
        <time>2012-03-16T09:54:16Z</time>
      </trkpt>
      <trkpt lat="47.30217" lon="4.98193">
        <ele>369.219</ele>
        <time>2012-03-16T09:54:27Z</time>
      </trkpt>
      <trkpt lat="47.30228" lon="4.98188">
        <ele>368.147</ele>
        <time>2012-03-16T09:54:38Z</time>
      </trkpt>
      <trkpt lat="47.30235" lon="4.9817">
        <ele>368.9</ele>
        <time>2012-03-16T09:54:49Z</time>
      </trkpt>
      <trkpt lat="47.30245" lon="4.98152">
        <ele>365.273</ele>
        <time>2012-03-16T09:55:00Z</time>
      </trkpt>
      <trkpt lat="47.30255" lon="4.98135">
        <ele>363.475</ele>
        <time>2012-03-16T09:55:11Z</time>
      </trkpt>
      <trkpt lat="47.30265" lon="4.98123">
        <ele>363.666</ele>
        <time>2012-03-16T09:55:22Z</time>
      </trkpt>
      <trkpt lat="47.30278" lon="4.9811">
        <ele>360.59</ele>
        <time>2012-03-16T09:55:33Z</time>
      </trkpt>
      <trkpt lat="47.30288" lon="4.98097">
        <ele>360.247</ele>
        <time>2012-03-16T09:55:44Z</time>
      </trkpt>
      <trkpt lat="47.30295" lon="4.9808">
        <ele>360.917</ele>
        <time>2012-03-16T09:55:55Z</time>
      </trkpt>
      <trkpt lat="47.3029" lon="4.9806">
        <ele>360.99</ele>
        <time>2012-03-16T09:56:06Z</time>
      </trkpt>
      <trkpt lat="47.30282" lon="4.98038">
        <ele>363.164</ele>
        <time>2012-03-16T09:56:17Z</time>
      </trkpt>
      <trkpt lat="47.30273" lon="4.98018">
        <ele>365.365</ele>
        <time>2012-03-16T09:56:28Z</time>
      </trkpt>
      <trkpt lat="47.30267" lon="4.98005">
        <ele>367.533</ele>
        <time>2012-03-16T09:56:39Z</time>
      </trkpt>
      <trkpt lat="47.30257" lon="4.97983">
        <ele>371.307</ele>
        <time>2012-03-16T09:56:50Z</time>
      </trkpt>
      <trkpt lat="47.30247" lon="4.97963">
        <ele>372.471</ele>
        <time>2012-03-16T09:57:01Z</time>
      </trkpt>
      <trkpt lat="47.30235" lon="4.97942">
        <ele>374.61</ele>
        <time>2012-03-16T09:57:12Z</time>
      </trkpt>
      <trkpt lat="47.30227" lon="4.97922">
        <ele>377.606</ele>
        <time>2012-03-16T09:57:23Z</time>
      </trkpt>
      <trkpt lat="47.3022" lon="4.97905">
        <ele>377.969</ele>
        <time>2012-03-16T09:57:34Z</time>
      </trkpt>
      <trkpt lat="47.30212" lon="4.97883">
        <ele>377.195</ele>
        <time>2012-03-16T09:57:45Z</time>
      </trkpt>
      <trkpt lat="47.30203" lon="4.97863">
        <ele>379.002</ele>
        <time>2012-03-16T09:57:56Z</time>
      </trkpt>
      <trkpt lat="47.30195" lon="4.97843">
        <ele>378.92</ele>
        <time>2012-03-16T09:58:07Z</time>
      </trkpt>
      <trkpt lat="47.30188" lon="4.97827">
        <ele>376.106</ele>
        <time>2012-03-16T09:58:18Z</time>
      </trkpt>
      <trkpt lat="47.30178" lon="4.97808">
        <ele>374.246</ele>
        <time>2012-03-16T09:58:29Z</time>
      </trkpt>
      <trkpt lat="47.3017" lon="4.97788">
        <ele>373.564</ele>
        <time>2012-03-16T09:58:40Z</time>
      </trkpt>
      <trkpt lat="47.3016" lon="4.97768">
        <ele>373.229</ele>
        <time>2012-03-16T09:58:51Z</time>
      </trkpt>
      <trkpt lat="47.3015" lon="4.9775">
        <ele>373.717</ele>
        <time>2012-03-16T09:59:02Z</time>
      </trkpt>
      <trkpt lat="47.30143" lon="4.9773">
        <ele>373.4</ele>
        <time>2012-03-16T09:59:13Z</time>
      </trkpt>
      <trkpt lat="47.30135" lon="4.9771">
        <ele>371.994</ele>
        <time>2012-03-16T09:59:24Z</time>
      </trkpt>
      <trkpt lat="47.30125" lon="4.97693">
        <ele>372.862</ele>
        <time>2012-03-16T09:59:35Z</time>
      </trkpt>
      <trkpt lat="47.30117" lon="4.97675">
        <ele>373.072</ele>
        <time>2012-03-16T09:59:46Z</time>
      </trkpt>
      <trkpt lat="47.30108" lon="4.97657">
        <ele>373.003</ele>
        <time>2012-03-16T09:59:57Z</time>
      </trkpt>
      <trkpt lat="47.30098" lon="4.97637">
        <ele>372.052</ele>
        <time>2012-03-16T10:00:08Z</time>
      </trkpt>
      <trkpt lat="47.30088" lon="4.97617">
        <ele>371.085</ele>
        <time>2012-03-16T10:00:19Z</time>
      </trkpt>
      <trkpt lat="47.3008" lon="4.97598">
        <ele>370.666</ele>
        <time>2012-03-16T10:00:30Z</time>
      </trkpt>
      <trkpt lat="47.30073" lon="4.97583">
        <ele>370.56</ele>
        <time>2012-03-16T10:00:41Z</time>
      </trkpt>
      <trkpt lat="47.30063" lon="4.97563">
        <ele>370.508</ele>
        <time>2012-03-16T10:00:52Z</time>
      </trkpt>
      <trkpt lat="47.30052" lon="4.97543">
        <ele>369.981</ele>
        <time>2012-03-16T10:01:03Z</time>
      </trkpt>
      <trkpt lat="47.30043" lon="4.97525">
        <ele>370.059</ele>
        <time>2012-03-16T10:01:14Z</time>
      </trkpt>
      <trkpt lat="47.30033" lon="4.97508">
        <ele>369.849</ele>
        <time>2012-03-16T10:01:25Z</time>
      </trkpt>
      <trkpt lat="47.30023" lon="4.97488">
        <ele>370.458</ele>
        <time>2012-03-16T10:01:36Z</time>
      </trkpt>
      <trkpt lat="47.30012" lon="4.9747">
        <ele>371.606</ele>
        <time>2012-03-16T10:01:47Z</time>
      </trkpt>
      <trkpt lat="47.30002" lon="4.9745">
        <ele>372.782</ele>
        <time>2012-03-16T10:01:58Z</time>
      </trkpt>
      <trkpt lat="47.29993" lon="4.97427">
        <ele>373.303</ele>
        <time>2012-03-16T10:02:09Z</time>
      </trkpt>
      <trkpt lat="47.29985" lon="4.97407">
        <ele>373.455</ele>
        <time>2012-03-16T10:02:20Z</time>
      </trkpt>
      <trkpt lat="47.29977" lon="4.97387">
        <ele>372.779</ele>
        <time>2012-03-16T10:02:31Z</time>
      </trkpt>
      <trkpt lat="47.29967" lon="4.97367">
        <ele>372.58</ele>
        <time>2012-03-16T10:02:42Z</time>
      </trkpt>
      <trkpt lat="47.29955" lon="4.97347">
        <ele>372.83</ele>
        <time>2012-03-16T10:02:53Z</time>
      </trkpt>
      <trkpt lat="47.29948" lon="4.97323">
        <ele>373.648</ele>
        <time>2012-03-16T10:03:04Z</time>
      </trkpt>
      <trkpt lat="47.2994" lon="4.97302">
        <ele>374.812</ele>
        <time>2012-03-16T10:03:15Z</time>
      </trkpt>
      <trkpt lat="47.29932" lon="4.97282">
        <ele>375.152</ele>
        <time>2012-03-16T10:03:26Z</time>
      </trkpt>
      <trkpt lat="47.29925" lon="4.97262">
        <ele>373.082</ele>
        <time>2012-03-16T10:03:37Z</time>
      </trkpt>
      <trkpt lat="47.29917" lon="4.97238">
        <ele>372.826</ele>
        <time>2012-03-16T10:03:48Z</time>
      </trkpt>
      <trkpt lat="47.29903" lon="4.97222">
        <ele>372.146</ele>
        <time>2012-03-16T10:03:59Z</time>
      </trkpt>
      <trkpt lat="47.29892" lon="4.97207">
        <ele>371.346</ele>
        <time>2012-03-16T10:04:10Z</time>
      </trkpt>
      <trkpt lat="47.29878" lon="4.97193">
        <ele>371.329</ele>
        <time>2012-03-16T10:04:21Z</time>
      </trkpt>
      <trkpt lat="47.29865" lon="4.9718">
        <ele>371.186</ele>
        <time>2012-03-16T10:04:32Z</time>
      </trkpt>
      <trkpt lat="47.29853" lon="4.97167">
        <ele>370.7</ele>
        <time>2012-03-16T10:04:43Z</time>
      </trkpt>
      <trkpt lat="47.29847" lon="4.97167">
        <ele>369.26</ele>
        <time>2012-03-16T10:04:54Z</time>
      </trkpt>
      <trkpt lat="47.29847" lon="4.97167">
        <ele>369.26</ele>
        <time>2012-03-16T10:05:05Z</time>
      </trkpt>
      <trkpt lat="47.29847" lon="4.97167">
        <ele>369.26</ele>
        <time>2012-03-16T10:05:16Z</time>
      </trkpt>
      <trkpt lat="47.29847" lon="4.97167">
        <ele>369.26</ele>
        <time>2012-03-16T10:05:27Z</time>
      </trkpt>
      <trkpt lat="47.29847" lon="4.97167">
        <ele>369.26</ele>
        <time>2012-03-16T10:05:38Z</time>
      </trkpt>
      <trkpt lat="47.29847" lon="4.97167">
        <ele>369.153</ele>
        <time>2012-03-16T10:05:49Z</time>
      </trkpt>
      <trkpt lat="47.29847" lon="4.97167">
        <ele>368.681</ele>
        <time>2012-03-16T10:06:00Z</time>
      </trkpt>
      <trkpt lat="47.29847" lon="4.97167">
        <ele>368.681</ele>
        <time>2012-03-16T10:06:11Z</time>
      </trkpt>
      <trkpt lat="47.29847" lon="4.97167">
        <ele>368.681</ele>
        <time>2012-03-16T10:06:22Z</time>
      </trkpt>
      <trkpt lat="47.29847" lon="4.97167">
        <ele>368.681</ele>
        <time>2012-03-16T10:06:33Z</time>
      </trkpt>
      <trkpt lat="47.29847" lon="4.97167">
        <ele>368.681</ele>
        <time>2012-03-16T10:06:44Z</time>
      </trkpt>
      <trkpt lat="47.29847" lon="4.97167">
        <ele>368.681</ele>
        <time>2012-03-16T10:06:55Z</time>
      </trkpt>
      <trkpt lat="47.29847" lon="4.97167">
        <ele>368.681</ele>
        <time>2012-03-16T10:07:06Z</time>
      </trkpt>
      <trkpt lat="47.29847" lon="4.97167">
        <ele>368.681</ele>
        <time>2012-03-16T10:07:17Z</time>
      </trkpt>
      <trkpt lat="47.29847" lon="4.97167">
        <ele>368.681</ele>
        <time>2012-03-16T10:07:28Z</time>
      </trkpt>
      <trkpt lat="47.29847" lon="4.97167">
        <ele>368.681</ele>
        <time>2012-03-16T10:07:39Z</time>
      </trkpt>
      <trkpt lat="47.29847" lon="4.97167">
        <ele>368.681</ele>
        <time>2012-03-16T10:07:50Z</time>
      </trkpt>
      <trkpt lat="47.29847" lon="4.97167">
        <ele>368.681</ele>
        <time>2012-03-16T10:08:01Z</time>
      </trkpt>
      <trkpt lat="47.29847" lon="4.97167">
        <ele>368.681</ele>
        <time>2012-03-16T10:08:12Z</time>
      </trkpt>
      <trkpt lat="47.29847" lon="4.97167">
        <ele>369.138</ele>
        <time>2012-03-16T10:08:23Z</time>
      </trkpt>
      <trkpt lat="47.29838" lon="4.97173">
        <ele>371.437</ele>
        <time>2012-03-16T10:08:34Z</time>
      </trkpt>
      <trkpt lat="47.29825" lon="4.97183">
        <ele>374.479</ele>
        <time>2012-03-16T10:08:45Z</time>
      </trkpt>
      <trkpt lat="47.2981" lon="4.97173">
        <ele>376.139</ele>
        <time>2012-03-16T10:08:56Z</time>
      </trkpt>
      <trkpt lat="47.29797" lon="4.97163">
        <ele>376.562</ele>
        <time>2012-03-16T10:09:07Z</time>
      </trkpt>
      <trkpt lat="47.29783" lon="4.97152">
        <ele>376.56</ele>
        <time>2012-03-16T10:09:18Z</time>
      </trkpt>
      <trkpt lat="47.29772" lon="4.97137">
        <ele>378.351</ele>
        <time>2012-03-16T10:09:29Z</time>
      </trkpt>
      <trkpt lat="47.29758" lon="4.97125">
        <ele>378.287</ele>
        <time>2012-03-16T10:09:40Z</time>
      </trkpt>
      <trkpt lat="47.29743" lon="4.97118">
        <ele>377.233</ele>
        <time>2012-03-16T10:09:51Z</time>
      </trkpt>
      <trkpt lat="47.29738" lon="4.97105">
        <ele>377.327</ele>
        <time>2012-03-16T10:10:02Z</time>
      </trkpt>
      <trkpt lat="47.29737" lon="4.97098">
        <ele>377.521</ele>
        <time>2012-03-16T10:10:13Z</time>
      </trkpt>
      <trkpt lat="47.29742" lon="4.97083">
        <ele>376.683</ele>
        <time>2012-03-16T10:10:24Z</time>
      </trkpt>
      <trkpt lat="47.29753" lon="4.97075">
        <ele>377.92</ele>
        <time>2012-03-16T10:10:35Z</time>
      </trkpt>
      <trkpt lat="47.29755" lon="4.97067">
        <ele>378.405</ele>
        <time>2012-03-16T10:10:46Z</time>
      </trkpt>
      <trkpt lat="47.29743" lon="4.97057">
        <ele>379.167</ele>
        <time>2012-03-16T10:10:57Z</time>
      </trkpt>
      <trkpt lat="47.29732" lon="4.9705">
        <ele>378.248</ele>
        <time>2012-03-16T10:11:08Z</time>
      </trkpt>
      <trkpt lat="47.29717" lon="4.97048">
        <ele>378.583</ele>
        <time>2012-03-16T10:11:19Z</time>
      </trkpt>
      <trkpt lat="47.29705" lon="4.97045">
        <ele>378.925</ele>
        <time>2012-03-16T10:11:30Z</time>
      </trkpt>
      <trkpt lat="47.2969" lon="4.97043">
        <ele>377.741</ele>
        <time>2012-03-16T10:11:41Z</time>
      </trkpt>
      <trkpt lat="47.29677" lon="4.97042">
        <ele>375.649</ele>
        <time>2012-03-16T10:11:52Z</time>
      </trkpt>
      <trkpt lat="47.29667" lon="4.97032">
        <ele>376.479</ele>
        <time>2012-03-16T10:12:03Z</time>
      </trkpt>
      <trkpt lat="47.29655" lon="4.97022">
        <ele>375.109</ele>
        <time>2012-03-16T10:12:14Z</time>
      </trkpt>
      <trkpt lat="47.29645" lon="4.97012">
        <ele>377.005</ele>
        <time>2012-03-16T10:12:25Z</time>
      </trkpt>
      <trkpt lat="47.29632" lon="4.96997">
        <ele>375.399</ele>
        <time>2012-03-16T10:12:36Z</time>
      </trkpt>
      <trkpt lat="47.29622" lon="4.9698">
        <ele>373.354</ele>
        <time>2012-03-16T10:12:47Z</time>
      </trkpt>
      <trkpt lat="47.2961" lon="4.96962">
        <ele>369.887</ele>
        <time>2012-03-16T10:12:58Z</time>
      </trkpt>
      <trkpt lat="47.296" lon="4.9695">
        <ele>367.604</ele>
        <time>2012-03-16T10:13:09Z</time>
      </trkpt>
      <trkpt lat="47.29585" lon="4.96938">
        <ele>366.765</ele>
        <time>2012-03-16T10:13:20Z</time>
      </trkpt>
      <trkpt lat="47.29568" lon="4.9693">
        <ele>365.787</ele>
        <time>2012-03-16T10:13:31Z</time>
      </trkpt>
      <trkpt lat="47.29552" lon="4.96927">
        <ele>368.148</ele>
        <time>2012-03-16T10:13:42Z</time>
      </trkpt>
      <trkpt lat="47.29538" lon="4.96928">
        <ele>366.185</ele>
        <time>2012-03-16T10:13:53Z</time>
      </trkpt>
      <trkpt lat="47.29525" lon="4.96928">
        <ele>364.433</ele>
        <time>2012-03-16T10:14:04Z</time>
      </trkpt>
      <trkpt lat="47.2951" lon="4.9693">
        <ele>362.109</ele>
        <time>2012-03-16T10:14:15Z</time>
      </trkpt>
      <trkpt lat="47.29497" lon="4.96933">
        <ele>362.065</ele>
        <time>2012-03-16T10:14:26Z</time>
      </trkpt>
      <trkpt lat="47.29485" lon="4.96938">
        <ele>362.564</ele>
        <time>2012-03-16T10:14:37Z</time>
      </trkpt>
      <trkpt lat="47.29477" lon="4.96948">
        <ele>362.458</ele>
        <time>2012-03-16T10:14:48Z</time>
      </trkpt>
      <trkpt lat="47.2946" lon="4.96965">
        <ele>360.573</ele>
        <time>2012-03-16T10:14:59Z</time>
      </trkpt>
      <trkpt lat="47.29447" lon="4.96978">
        <ele>356.925</ele>
        <time>2012-03-16T10:15:10Z</time>
      </trkpt>
      <trkpt lat="47.29435" lon="4.96998">
        <ele>355.112</ele>
        <time>2012-03-16T10:15:21Z</time>
      </trkpt>
      <trkpt lat="47.29422" lon="4.97015">
        <ele>356.389</ele>
        <time>2012-03-16T10:15:32Z</time>
      </trkpt>
      <trkpt lat="47.2941" lon="4.9703">
        <ele>358.204</ele>
        <time>2012-03-16T10:15:43Z</time>
      </trkpt>
      <trkpt lat="47.29397" lon="4.97042">
        <ele>357.431</ele>
        <time>2012-03-16T10:15:54Z</time>
      </trkpt>
      <trkpt lat="47.29388" lon="4.97052">
        <ele>358.136</ele>
        <time>2012-03-16T10:16:05Z</time>
      </trkpt>
      <trkpt lat="47.29375" lon="4.97067">
        <ele>357.165</ele>
        <time>2012-03-16T10:16:16Z</time>
      </trkpt>
      <trkpt lat="47.2936" lon="4.97083">
        <ele>353.814</ele>
        <time>2012-03-16T10:16:27Z</time>
      </trkpt>
      <trkpt lat="47.29343" lon="4.97097">
        <ele>352.851</ele>
        <time>2012-03-16T10:16:38Z</time>
      </trkpt>
      <trkpt lat="47.29335" lon="4.9711">
        <ele>353.639</ele>
        <time>2012-03-16T10:16:49Z</time>
      </trkpt>
      <trkpt lat="47.29322" lon="4.97125">
        <ele>352.841</ele>
        <time>2012-03-16T10:17:00Z</time>
      </trkpt>
      <trkpt lat="47.29313" lon="4.9714">
        <ele>352.849</ele>
        <time>2012-03-16T10:17:11Z</time>
      </trkpt>
      <trkpt lat="47.293" lon="4.97153">
        <ele>352.051</ele>
        <time>2012-03-16T10:17:22Z</time>
      </trkpt>
      <trkpt lat="47.29287" lon="4.97172">
        <ele>351.839</ele>
        <time>2012-03-16T10:17:33Z</time>
      </trkpt>
      <trkpt lat="47.29277" lon="4.97185">
        <ele>353.08</ele>
        <time>2012-03-16T10:17:44Z</time>
      </trkpt>
      <trkpt lat="47.2926" lon="4.972">
        <ele>352.51</ele>
        <time>2012-03-16T10:17:55Z</time>
      </trkpt>
      <trkpt lat="47.29245" lon="4.97217">
        <ele>351.764</ele>
        <time>2012-03-16T10:18:06Z</time>
      </trkpt>
      <trkpt lat="47.29232" lon="4.97225">
        <ele>350.572</ele>
        <time>2012-03-16T10:18:17Z</time>
      </trkpt>
      <trkpt lat="47.29215" lon="4.97237">
        <ele>347.665</ele>
        <time>2012-03-16T10:18:28Z</time>
      </trkpt>
      <trkpt lat="47.29202" lon="4.9725">
        <ele>348.5</ele>
        <time>2012-03-16T10:18:39Z</time>
      </trkpt>
      <trkpt lat="47.29188" lon="4.97267">
        <ele>350.757</ele>
        <time>2012-03-16T10:18:50Z</time>
      </trkpt>
      <trkpt lat="47.29177" lon="4.9728">
        <ele>351.402</ele>
        <time>2012-03-16T10:19:01Z</time>
      </trkpt>
      <trkpt lat="47.2916" lon="4.97297">
        <ele>351.586</ele>
        <time>2012-03-16T10:19:12Z</time>
      </trkpt>
      <trkpt lat="47.2915" lon="4.97315">
        <ele>351.357</ele>
        <time>2012-03-16T10:19:23Z</time>
      </trkpt>
      <trkpt lat="47.29142" lon="4.9733">
        <ele>349.94</ele>
        <time>2012-03-16T10:19:34Z</time>
      </trkpt>
      <trkpt lat="47.29132" lon="4.9735">
        <ele>350.195</ele>
        <time>2012-03-16T10:19:45Z</time>
      </trkpt>
      <trkpt lat="47.2912" lon="4.97372">
        <ele>350.525</ele>
        <time>2012-03-16T10:19:56Z</time>
      </trkpt>
      <trkpt lat="47.29107" lon="4.97395">
        <ele>349.078</ele>
        <time>2012-03-16T10:20:07Z</time>
      </trkpt>
      <trkpt lat="47.29095" lon="4.97415">
        <ele>347.814</ele>
        <time>2012-03-16T10:20:18Z</time>
      </trkpt>
      <trkpt lat="47.29085" lon="4.97437">
        <ele>345.59</ele>
        <time>2012-03-16T10:20:29Z</time>
      </trkpt>
      <trkpt lat="47.29075" lon="4.97453">
        <ele>345.776</ele>
        <time>2012-03-16T10:20:40Z</time>
      </trkpt>
      <trkpt lat="47.29068" lon="4.97465">
        <ele>346.843</ele>
        <time>2012-03-16T10:20:51Z</time>
      </trkpt>
      <trkpt lat="47.29058" lon="4.97488">
        <ele>344.964</ele>
        <time>2012-03-16T10:21:02Z</time>
      </trkpt>
      <trkpt lat="47.29053" lon="4.97505">
        <ele>344.357</ele>
        <time>2012-03-16T10:21:13Z</time>
      </trkpt>
      <trkpt lat="47.29048" lon="4.97528">
        <ele>343.976</ele>
        <time>2012-03-16T10:21:24Z</time>
      </trkpt>
      <trkpt lat="47.29043" lon="4.97538">
        <ele>346.133</ele>
        <time>2012-03-16T10:21:35Z</time>
      </trkpt>
      <trkpt lat="47.29043" lon="4.9754">
        <ele>344.24</ele>
        <time>2012-03-16T10:21:46Z</time>
      </trkpt>
      <trkpt lat="47.29043" lon="4.9754">
        <ele>344.24</ele>
        <time>2012-03-16T10:21:57Z</time>
      </trkpt>
      <trkpt lat="47.29043" lon="4.9754">
        <ele>344.24</ele>
        <time>2012-03-16T10:22:08Z</time>
      </trkpt>
      <trkpt lat="47.29043" lon="4.9754">
        <ele>344.24</ele>
        <time>2012-03-16T10:22:19Z</time>
      </trkpt>
      <trkpt lat="47.29043" lon="4.9754">
        <ele>344.24</ele>
        <time>2012-03-16T10:22:30Z</time>
      </trkpt>
      <trkpt lat="47.29043" lon="4.9754">
        <ele>344.303</ele>
        <time>2012-03-16T10:22:41Z</time>
      </trkpt>
      <trkpt lat="47.29043" lon="4.9754">
        <ele>344.303</ele>
        <time>2012-03-16T10:22:52Z</time>
      </trkpt>
      <trkpt lat="47.29043" lon="4.9754">
        <ele>344.303</ele>
        <time>2012-03-16T10:23:03Z</time>
      </trkpt>
      <trkpt lat="47.29043" lon="4.9754">
        <ele>344.091</ele>
        <time>2012-03-16T10:23:14Z</time>
      </trkpt>
      <trkpt lat="47.29052" lon="4.97547">
        <ele>343.195</ele>
        <time>2012-03-16T10:23:25Z</time>
      </trkpt>
      <trkpt lat="47.29062" lon="4.97552">
        <ele>344.239</ele>
        <time>2012-03-16T10:23:36Z</time>
      </trkpt>
      <trkpt lat="47.29072" lon="4.97557">
        <ele>343.805</ele>
        <time>2012-03-16T10:23:47Z</time>
      </trkpt>
      <trkpt lat="47.2908" lon="4.97563">
        <ele>343.796</ele>
        <time>2012-03-16T10:23:58Z</time>
      </trkpt>
      <trkpt lat="47.2909" lon="4.97575">
        <ele>343.05</ele>
        <time>2012-03-16T10:24:09Z</time>
      </trkpt>
      <trkpt lat="47.29103" lon="4.97583">
        <ele>343.156</ele>
        <time>2012-03-16T10:24:20Z</time>
      </trkpt>
      <trkpt lat="47.29115" lon="4.9759">
        <ele>344.57</ele>
        <time>2012-03-16T10:24:31Z</time>
      </trkpt>
      <trkpt lat="47.29128" lon="4.97603">
        <ele>346.31</ele>
        <time>2012-03-16T10:24:42Z</time>
      </trkpt>
      <trkpt lat="47.29138" lon="4.97617">
        <ele>348.427</ele>
        <time>2012-03-16T10:24:53Z</time>
      </trkpt>
      <trkpt lat="47.2915" lon="4.97632">
        <ele>352.055</ele>
        <time>2012-03-16T10:25:04Z</time>
      </trkpt>
      <trkpt lat="47.29153" lon="4.97652">
        <ele>352.528</ele>
        <time>2012-03-16T10:25:15Z</time>
      </trkpt>
      <trkpt lat="47.29158" lon="4.9767">
        <ele>353.594</ele>
        <time>2012-03-16T10:25:26Z</time>
      </trkpt>
      <trkpt lat="47.29167" lon="4.97683">
        <ele>355.122</ele>
        <time>2012-03-16T10:25:37Z</time>
      </trkpt>
      <trkpt lat="47.29172" lon="4.97695">
        <ele>358.039</ele>
        <time>2012-03-16T10:25:48Z</time>
      </trkpt>
      <trkpt lat="47.29182" lon="4.97705">
        <ele>362.071</ele>
        <time>2012-03-16T10:25:59Z</time>
      </trkpt>
      <trkpt lat="47.29193" lon="4.97713">
        <ele>363.667</ele>
        <time>2012-03-16T10:26:10Z</time>
      </trkpt>
      <trkpt lat="47.29205" lon="4.97725">
        <ele>364.428</ele>
        <time>2012-03-16T10:26:21Z</time>
      </trkpt>
      <trkpt lat="47.29217" lon="4.97735">
        <ele>364.677</ele>
        <time>2012-03-16T10:26:32Z</time>
      </trkpt>
      <trkpt lat="47.2923" lon="4.97745">
        <ele>364.882</ele>
        <time>2012-03-16T10:26:43Z</time>
      </trkpt>
      <trkpt lat="47.29243" lon="4.97755">
        <ele>364.468</ele>
        <time>2012-03-16T10:26:54Z</time>
      </trkpt>
      <trkpt lat="47.29255" lon="4.97765">
        <ele>364.299</ele>
        <time>2012-03-16T10:27:05Z</time>
      </trkpt>
      <trkpt lat="47.29268" lon="4.9777">
        <ele>365.078</ele>
        <time>2012-03-16T10:27:16Z</time>
      </trkpt>
      <trkpt lat="47.29282" lon="4.97778">
        <ele>365.59</ele>
        <time>2012-03-16T10:27:27Z</time>
      </trkpt>
      <trkpt lat="47.29292" lon="4.97792">
        <ele>368.514</ele>
        <time>2012-03-16T10:27:38Z</time>
      </trkpt>
      <trkpt lat="47.29303" lon="4.97792">
        <ele>368.358</ele>
        <time>2012-03-16T10:27:49Z</time>
      </trkpt>
      <trkpt lat="47.29315" lon="4.97798">
        <ele>370.009</ele>
        <time>2012-03-16T10:28:00Z</time>
      </trkpt>
      <trkpt lat="47.29327" lon="4.97802">
        <ele>372.952</ele>
        <time>2012-03-16T10:28:11Z</time>
      </trkpt>
      <trkpt lat="47.29338" lon="4.97807">
        <ele>375.155</ele>
        <time>2012-03-16T10:28:22Z</time>
      </trkpt>
      <trkpt lat="47.29345" lon="4.97807">
        <ele>377.092</ele>
        <time>2012-03-16T10:28:33Z</time>
      </trkpt>
      <trkpt lat="47.29347" lon="4.97795">
        <ele>379.149</ele>
        <time>2012-03-16T10:28:44Z</time>
      </trkpt>
      <trkpt lat="47.2935" lon="4.97785">
        <ele>380.234</ele>
        <time>2012-03-16T10:28:55Z</time>
      </trkpt>
      <trkpt lat="47.29355" lon="4.9778">
        <ele>380.498</ele>
        <time>2012-03-16T10:29:06Z</time>
      </trkpt>
      <trkpt lat="47.29355" lon="4.9778">
        <ele>380.498</ele>
        <time>2012-03-16T10:29:17Z</time>
      </trkpt>
      <trkpt lat="47.29355" lon="4.9778">
        <ele>380.532</ele>
        <time>2012-03-16T10:29:28Z</time>
      </trkpt>
      <trkpt lat="47.29357" lon="4.97782">
        <ele>380.484</ele>
        <time>2012-03-16T10:29:39Z</time>
      </trkpt>
      <trkpt lat="47.29357" lon="4.97782">
        <ele>380.484</ele>
        <time>2012-03-16T10:29:50Z</time>
      </trkpt>
      <trkpt lat="47.29357" lon="4.97782">
        <ele>380.484</ele>
        <time>2012-03-16T10:30:01Z</time>
      </trkpt>
      <trkpt lat="47.29357" lon="4.97782">
        <ele>380.484</ele>
        <time>2012-03-16T10:30:12Z</time>
      </trkpt>
      <trkpt lat="47.29357" lon="4.97782">
        <ele>380.484</ele>
        <time>2012-03-16T10:30:23Z</time>
      </trkpt>
      <trkpt lat="47.29357" lon="4.97782">
        <ele>380.484</ele>
        <time>2012-03-16T10:30:34Z</time>
      </trkpt>
      <trkpt lat="47.29357" lon="4.97782">
        <ele>380.484</ele>
        <time>2012-03-16T10:30:45Z</time>
      </trkpt>
      <trkpt lat="47.29357" lon="4.97782">
        <ele>380.484</ele>
        <time>2012-03-16T10:30:56Z</time>
      </trkpt>
      <trkpt lat="47.29357" lon="4.97782">
        <ele>380.484</ele>
        <time>2012-03-16T10:31:07Z</time>
      </trkpt>
      <trkpt lat="47.29357" lon="4.97782">
        <ele>380.484</ele>
        <time>2012-03-16T10:31:18Z</time>
      </trkpt>
      <trkpt lat="47.29357" lon="4.97782">
        <ele>380.484</ele>
        <time>2012-03-16T10:31:29Z</time>
      </trkpt>
      <trkpt lat="47.29357" lon="4.97782">
        <ele>380.484</ele>
        <time>2012-03-16T10:31:40Z</time>
      </trkpt>
      <trkpt lat="47.29357" lon="4.97782">
        <ele>380.484</ele>
        <time>2012-03-16T10:31:51Z</time>
      </trkpt>
      <trkpt lat="47.29357" lon="4.97782">
        <ele>380.484</ele>
        <time>2012-03-16T10:32:02Z</time>
      </trkpt>
      <trkpt lat="47.29357" lon="4.97782">
        <ele>380.484</ele>
        <time>2012-03-16T10:32:13Z</time>
      </trkpt>
      <trkpt lat="47.29357" lon="4.97782">
        <ele>380.484</ele>
        <time>2012-03-16T10:32:24Z</time>
      </trkpt>
      <trkpt lat="47.29357" lon="4.97782">
        <ele>380.484</ele>
        <time>2012-03-16T10:32:35Z</time>
      </trkpt>
      <trkpt lat="47.29357" lon="4.97782">
        <ele>380.484</ele>
        <time>2012-03-16T10:32:46Z</time>
      </trkpt>
      <trkpt lat="47.29358" lon="4.97787">
        <ele>378.539</ele>
        <time>2012-03-16T10:32:57Z</time>
      </trkpt>
      <trkpt lat="47.29362" lon="4.97798">
        <ele>377.695</ele>
        <time>2012-03-16T10:33:08Z</time>
      </trkpt>
      <trkpt lat="47.29365" lon="4.97812">
        <ele>377.211</ele>
        <time>2012-03-16T10:33:19Z</time>
      </trkpt>
      <trkpt lat="47.29363" lon="4.97827">
        <ele>377.268</ele>
        <time>2012-03-16T10:33:30Z</time>
      </trkpt>
      <trkpt lat="47.29363" lon="4.97845">
        <ele>378.673</ele>
        <time>2012-03-16T10:33:41Z</time>
      </trkpt>
      <trkpt lat="47.29353" lon="4.97858">
        <ele>379.028</ele>
        <time>2012-03-16T10:33:52Z</time>
      </trkpt>
      <trkpt lat="47.2934" lon="4.97862">
        <ele>379.796</ele>
        <time>2012-03-16T10:34:03Z</time>
      </trkpt>
      <trkpt lat="47.29325" lon="4.97863">
        <ele>380.148</ele>
        <time>2012-03-16T10:34:14Z</time>
      </trkpt>
      <trkpt lat="47.2931" lon="4.97862">
        <ele>379.998</ele>
        <time>2012-03-16T10:34:25Z</time>
      </trkpt>
      <trkpt lat="47.29297" lon="4.97863">
        <ele>381.257</ele>
        <time>2012-03-16T10:34:36Z</time>
      </trkpt>
      <trkpt lat="47.2929" lon="4.97862">
        <ele>382.57</ele>
        <time>2012-03-16T10:34:47Z</time>
      </trkpt>
      <trkpt lat="47.2929" lon="4.9786">
        <ele>382.474</ele>
        <time>2012-03-16T10:34:58Z</time>
      </trkpt>
      <trkpt lat="47.29283" lon="4.97848">
        <ele>381.648</ele>
        <time>2012-03-16T10:35:09Z</time>
      </trkpt>
      <trkpt lat="47.29268" lon="4.9784">
        <ele>381.113</ele>
        <time>2012-03-16T10:35:20Z</time>
      </trkpt>
      <trkpt lat="47.29253" lon="4.97838">
        <ele>379.068</ele>
        <time>2012-03-16T10:35:31Z</time>
      </trkpt>
      <trkpt lat="47.29242" lon="4.97837">
        <ele>376.872</ele>
        <time>2012-03-16T10:35:42Z</time>
      </trkpt>
      <trkpt lat="47.29227" lon="4.97835">
        <ele>376.917</ele>
        <time>2012-03-16T10:35:53Z</time>
      </trkpt>
      <trkpt lat="47.29212" lon="4.97833">
        <ele>377.686</ele>
        <time>2012-03-16T10:36:04Z</time>
      </trkpt>
      <trkpt lat="47.29193" lon="4.97835">
        <ele>377.41</ele>
        <time>2012-03-16T10:36:15Z</time>
      </trkpt>
      <trkpt lat="47.29178" lon="4.97837">
        <ele>378.116</ele>
        <time>2012-03-16T10:36:26Z</time>
      </trkpt>
      <trkpt lat="47.29167" lon="4.97852">
        <ele>379.108</ele>
        <time>2012-03-16T10:36:37Z</time>
      </trkpt>
      <trkpt lat="47.29162" lon="4.9787">
        <ele>380.134</ele>
        <time>2012-03-16T10:36:48Z</time>
      </trkpt>
      <trkpt lat="47.29165" lon="4.97892">
        <ele>378.679</ele>
        <time>2012-03-16T10:36:59Z</time>
      </trkpt>
      <trkpt lat="47.29172" lon="4.9791">
        <ele>379.098</ele>
        <time>2012-03-16T10:37:10Z</time>
      </trkpt>
      <trkpt lat="47.29178" lon="4.97928">
        <ele>378.027</ele>
        <time>2012-03-16T10:37:21Z</time>
      </trkpt>
      <trkpt lat="47.29188" lon="4.97945">
        <ele>376.985</ele>
        <time>2012-03-16T10:37:32Z</time>
      </trkpt>
      <trkpt lat="47.29195" lon="4.97962">
        <ele>377.036</ele>
        <time>2012-03-16T10:37:43Z</time>
      </trkpt>
      <trkpt lat="47.29203" lon="4.97975">
        <ele>377.229</ele>
        <time>2012-03-16T10:37:54Z</time>
      </trkpt>
      <trkpt lat="47.29208" lon="4.97992">
        <ele>376.435</ele>
        <time>2012-03-16T10:38:05Z</time>
      </trkpt>
      <trkpt lat="47.29218" lon="4.98005">
        <ele>376.247</ele>
        <time>2012-03-16T10:38:16Z</time>
      </trkpt>
      <trkpt lat="47.2923" lon="4.9802">
        <ele>375.615</ele>
        <time>2012-03-16T10:38:27Z</time>
      </trkpt>
      <trkpt lat="47.29242" lon="4.9804">
        <ele>375.997</ele>
        <time>2012-03-16T10:38:38Z</time>
      </trkpt>
      <trkpt lat="47.29255" lon="4.98055">
        <ele>376.959</ele>
        <time>2012-03-16T10:38:49Z</time>
      </trkpt>
      <trkpt lat="47.29267" lon="4.98067">
        <ele>377.238</ele>
        <time>2012-03-16T10:39:00Z</time>
      </trkpt>
      <trkpt lat="47.2928" lon="4.98073">
        <ele>377.662</ele>
        <time>2012-03-16T10:39:11Z</time>
      </trkpt>
      <trkpt lat="47.29292" lon="4.98078">
        <ele>378.036</ele>
        <time>2012-03-16T10:39:22Z</time>
      </trkpt>
      <trkpt lat="47.29303" lon="4.98083">
        <ele>379.181</ele>
        <time>2012-03-16T10:39:33Z</time>
      </trkpt>
      <trkpt lat="47.29313" lon="4.98102">
        <ele>380.382</ele>
        <time>2012-03-16T10:39:44Z</time>
      </trkpt>
      <trkpt lat="47.29325" lon="4.98117">
        <ele>380.476</ele>
        <time>2012-03-16T10:39:55Z</time>
      </trkpt>
      <trkpt lat="47.29335" lon="4.98133">
        <ele>381.185</ele>
        <time>2012-03-16T10:40:06Z</time>
      </trkpt>
      <trkpt lat="47.29347" lon="4.98147">
        <ele>381.315</ele>
        <time>2012-03-16T10:40:17Z</time>
      </trkpt>
      <trkpt lat="47.29358" lon="4.98158">
        <ele>381.28</ele>
        <time>2012-03-16T10:40:28Z</time>
      </trkpt>
      <trkpt lat="47.29368" lon="4.98172">
        <ele>381.603</ele>
        <time>2012-03-16T10:40:39Z</time>
      </trkpt>
      <trkpt lat="47.2937" lon="4.98188">
        <ele>380.45</ele>
        <time>2012-03-16T10:40:50Z</time>
      </trkpt>
      <trkpt lat="47.29377" lon="4.98203">
        <ele>379.534</ele>
        <time>2012-03-16T10:41:01Z</time>
      </trkpt>
      <trkpt lat="47.2939" lon="4.9822">
        <ele>380.044</ele>
        <time>2012-03-16T10:41:12Z</time>
      </trkpt>
      <trkpt lat="47.294" lon="4.98235">
        <ele>380.611</ele>
        <time>2012-03-16T10:41:23Z</time>
      </trkpt>
      <trkpt lat="47.29412" lon="4.98247">
        <ele>381.381</ele>
        <time>2012-03-16T10:41:34Z</time>
      </trkpt>
      <trkpt lat="47.29412" lon="4.98262">
        <ele>381.182</ele>
        <time>2012-03-16T10:41:45Z</time>
      </trkpt>
      <trkpt lat="47.29408" lon="4.98278">
        <ele>381.585</ele>
        <time>2012-03-16T10:41:56Z</time>
      </trkpt>
      <trkpt lat="47.29407" lon="4.98302">
        <ele>381.486</ele>
        <time>2012-03-16T10:42:07Z</time>
      </trkpt>
      <trkpt lat="47.294" lon="4.9832">
        <ele>383.003</ele>
        <time>2012-03-16T10:42:18Z</time>
      </trkpt>
      <trkpt lat="47.29397" lon="4.98338">
        <ele>385.186</ele>
        <time>2012-03-16T10:42:29Z</time>
      </trkpt>
      <trkpt lat="47.29392" lon="4.98348">
        <ele>385.508</ele>
        <time>2012-03-16T10:42:40Z</time>
      </trkpt>
      <trkpt lat="47.29378" lon="4.98337">
        <ele>385.198</ele>
        <time>2012-03-16T10:42:51Z</time>
      </trkpt>
      <trkpt lat="47.29362" lon="4.98332">
        <ele>384.194</ele>
        <time>2012-03-16T10:43:02Z</time>
      </trkpt>
      <trkpt lat="47.29345" lon="4.9833">
        <ele>384.036</ele>
        <time>2012-03-16T10:43:13Z</time>
      </trkpt>
      <trkpt lat="47.29328" lon="4.98328">
        <ele>384.07</ele>
        <time>2012-03-16T10:43:24Z</time>
      </trkpt>
      <trkpt lat="47.29313" lon="4.9832">
        <ele>384.96</ele>
        <time>2012-03-16T10:43:35Z</time>
      </trkpt>
      <trkpt lat="47.293" lon="4.98312">
        <ele>384.001</ele>
        <time>2012-03-16T10:43:46Z</time>
      </trkpt>
      <trkpt lat="47.29285" lon="4.98305">
        <ele>384.147</ele>
        <time>2012-03-16T10:43:57Z</time>
      </trkpt>
      <trkpt lat="47.29272" lon="4.98298">
        <ele>384.518</ele>
        <time>2012-03-16T10:44:08Z</time>
      </trkpt>
      <trkpt lat="47.29257" lon="4.98288">
        <ele>383.676</ele>
        <time>2012-03-16T10:44:19Z</time>
      </trkpt>
      <trkpt lat="47.29243" lon="4.98277">
        <ele>381.871</ele>
        <time>2012-03-16T10:44:30Z</time>
      </trkpt>
      <trkpt lat="47.2923" lon="4.98265">
        <ele>382.106</ele>
        <time>2012-03-16T10:44:41Z</time>
      </trkpt>
      <trkpt lat="47.2922" lon="4.98258">
        <ele>383.042</ele>
        <time>2012-03-16T10:44:52Z</time>
      </trkpt>
      <trkpt lat="47.29207" lon="4.98248">
        <ele>383.849</ele>
        <time>2012-03-16T10:45:03Z</time>
      </trkpt>
      <trkpt lat="47.2919" lon="4.98238">
        <ele>384.743</ele>
        <time>2012-03-16T10:45:14Z</time>
      </trkpt>
      <trkpt lat="47.29175" lon="4.98228">
        <ele>383.496</ele>
        <time>2012-03-16T10:45:25Z</time>
      </trkpt>
      <trkpt lat="47.29163" lon="4.98222">
        <ele>381.966</ele>
        <time>2012-03-16T10:45:36Z</time>
      </trkpt>
      <trkpt lat="47.29147" lon="4.98215">
        <ele>381.961</ele>
        <time>2012-03-16T10:45:47Z</time>
      </trkpt>
      <trkpt lat="47.29132" lon="4.98212">
        <ele>381.705</ele>
        <time>2012-03-16T10:45:58Z</time>
      </trkpt>
      <trkpt lat="47.29117" lon="4.98207">
        <ele>381.772</ele>
        <time>2012-03-16T10:46:09Z</time>
      </trkpt>
      <trkpt lat="47.291" lon="4.982">
        <ele>381.774</ele>
        <time>2012-03-16T10:46:20Z</time>
      </trkpt>
      <trkpt lat="47.29085" lon="4.98192">
        <ele>383.275</ele>
        <time>2012-03-16T10:46:31Z</time>
      </trkpt>
      <trkpt lat="47.2907" lon="4.98185">
        <ele>384.593</ele>
        <time>2012-03-16T10:46:42Z</time>
      </trkpt>
      <trkpt lat="47.29058" lon="4.98178">
        <ele>387.507</ele>
        <time>2012-03-16T10:46:53Z</time>
      </trkpt>
      <trkpt lat="47.29048" lon="4.98168">
        <ele>389.254</ele>
        <time>2012-03-16T10:47:04Z</time>
      </trkpt>
      <trkpt lat="47.29037" lon="4.9816">
        <ele>390.796</ele>
        <time>2012-03-16T10:47:15Z</time>
      </trkpt>
      <trkpt lat="47.29027" lon="4.98145">
        <ele>390.928</ele>
        <time>2012-03-16T10:47:26Z</time>
      </trkpt>
      <trkpt lat="47.2901" lon="4.98138">
        <ele>391.657</ele>
        <time>2012-03-16T10:47:37Z</time>
      </trkpt>
      <trkpt lat="47.28993" lon="4.98138">
        <ele>390.996</ele>
        <time>2012-03-16T10:47:48Z</time>
      </trkpt>
      <trkpt lat="47.28975" lon="4.98138">
        <ele>390.959</ele>
        <time>2012-03-16T10:47:59Z</time>
      </trkpt>
      <trkpt lat="47.2896" lon="4.98135">
        <ele>390.27</ele>
        <time>2012-03-16T10:48:10Z</time>
      </trkpt>
      <trkpt lat="47.28943" lon="4.98137">
        <ele>386.5</ele>
        <time>2012-03-16T10:48:21Z</time>
      </trkpt>
      <trkpt lat="47.2893" lon="4.98148">
        <ele>386.086</ele>
        <time>2012-03-16T10:48:32Z</time>
      </trkpt>
      <trkpt lat="47.2892" lon="4.98165">
        <ele>387.484</ele>
        <time>2012-03-16T10:48:43Z</time>
      </trkpt>
      <trkpt lat="47.2891" lon="4.98185">
        <ele>386.429</ele>
        <time>2012-03-16T10:48:54Z</time>
      </trkpt>
      <trkpt lat="47.28905" lon="4.98208">
        <ele>385.206</ele>
        <time>2012-03-16T10:49:05Z</time>
      </trkpt>
      <trkpt lat="47.28902" lon="4.9823">
        <ele>384.35</ele>
        <time>2012-03-16T10:49:16Z</time>
      </trkpt>
      <trkpt lat="47.28902" lon="4.98253">
        <ele>383.227</ele>
        <time>2012-03-16T10:49:27Z</time>
      </trkpt>
      <trkpt lat="47.28898" lon="4.98277">
        <ele>381.416</ele>
        <time>2012-03-16T10:49:38Z</time>
      </trkpt>
      <trkpt lat="47.28895" lon="4.983">
        <ele>380.085</ele>
        <time>2012-03-16T10:49:49Z</time>
      </trkpt>
      <trkpt lat="47.28898" lon="4.98322">
        <ele>379.792</ele>
        <time>2012-03-16T10:50:00Z</time>
      </trkpt>
      <trkpt lat="47.28902" lon="4.98343">
        <ele>380.135</ele>
        <time>2012-03-16T10:50:11Z</time>
      </trkpt>
      <trkpt lat="47.28907" lon="4.98365">
        <ele>379.075</ele>
        <time>2012-03-16T10:50:22Z</time>
      </trkpt>
      <trkpt lat="47.28912" lon="4.98387">
        <ele>378.98</ele>
        <time>2012-03-16T10:50:33Z</time>
      </trkpt>
      <trkpt lat="47.28917" lon="4.98408">
        <ele>377.932</ele>
        <time>2012-03-16T10:50:44Z</time>
      </trkpt>
      <trkpt lat="47.2892" lon="4.98433">
        <ele>377.583</ele>
        <time>2012-03-16T10:50:55Z</time>
      </trkpt>
      <trkpt lat="47.2892" lon="4.98453">
        <ele>377.762</ele>
        <time>2012-03-16T10:51:06Z</time>
      </trkpt>
      <trkpt lat="47.28912" lon="4.9847">
        <ele>377.067</ele>
        <time>2012-03-16T10:51:17Z</time>
      </trkpt>
      <trkpt lat="47.28898" lon="4.98482">
        <ele>375.562</ele>
        <time>2012-03-16T10:51:28Z</time>
      </trkpt>
      <trkpt lat="47.28888" lon="4.985">
        <ele>375.448</ele>
        <time>2012-03-16T10:51:39Z</time>
      </trkpt>
      <trkpt lat="47.2889" lon="4.98518">
        <ele>374.541</ele>
        <time>2012-03-16T10:51:50Z</time>
      </trkpt>
      <trkpt lat="47.28893" lon="4.9854">
        <ele>373.409</ele>
        <time>2012-03-16T10:52:01Z</time>
      </trkpt>
      <trkpt lat="47.28895" lon="4.98562">
        <ele>370.117</ele>
        <time>2012-03-16T10:52:12Z</time>
      </trkpt>
      <trkpt lat="47.28892" lon="4.98585">
        <ele>369.167</ele>
        <time>2012-03-16T10:52:23Z</time>
      </trkpt>
      <trkpt lat="47.28887" lon="4.98607">
        <ele>367.899</ele>
        <time>2012-03-16T10:52:34Z</time>
      </trkpt>
      <trkpt lat="47.28878" lon="4.98627">
        <ele>366.836</ele>
        <time>2012-03-16T10:52:45Z</time>
      </trkpt>
      <trkpt lat="47.28873" lon="4.98645">
        <ele>365.078</ele>
        <time>2012-03-16T10:52:56Z</time>
      </trkpt>
      <trkpt lat="47.28868" lon="4.98662">
        <ele>363.264</ele>
        <time>2012-03-16T10:53:07Z</time>
      </trkpt>
      <trkpt lat="47.2886" lon="4.98677">
        <ele>362.378</ele>
        <time>2012-03-16T10:53:18Z</time>
      </trkpt>
      <trkpt lat="47.28853" lon="4.98688">
        <ele>361.092</ele>
        <time>2012-03-16T10:53:29Z</time>
      </trkpt>
      <trkpt lat="47.28843" lon="4.98697">
        <ele>360.833</ele>
        <time>2012-03-16T10:53:40Z</time>
      </trkpt>
      <trkpt lat="47.2884" lon="4.98708">
        <ele>360.65</ele>
        <time>2012-03-16T10:53:51Z</time>
      </trkpt>
      <trkpt lat="47.28828" lon="4.9872">
        <ele>361.553</ele>
        <time>2012-03-16T10:54:02Z</time>
      </trkpt>
      <trkpt lat="47.28815" lon="4.98718">
        <ele>360.74</ele>
        <time>2012-03-16T10:54:13Z</time>
      </trkpt>
      <trkpt lat="47.28808" lon="4.98733">
        <ele>361.128</ele>
        <time>2012-03-16T10:54:24Z</time>
      </trkpt>
      <trkpt lat="47.28808" lon="4.98755">
        <ele>360.84</ele>
        <time>2012-03-16T10:54:35Z</time>
      </trkpt>
      <trkpt lat="47.2881" lon="4.98775">
        <ele>360.644</ele>
        <time>2012-03-16T10:54:46Z</time>
      </trkpt>
      <trkpt lat="47.2881" lon="4.988">
        <ele>358.353</ele>
        <time>2012-03-16T10:54:57Z</time>
      </trkpt>
      <trkpt lat="47.28808" lon="4.98825">
        <ele>358.285</ele>
        <time>2012-03-16T10:55:08Z</time>
      </trkpt>
      <trkpt lat="47.28802" lon="4.98845">
        <ele>358.201</ele>
        <time>2012-03-16T10:55:19Z</time>
      </trkpt>
      <trkpt lat="47.28797" lon="4.98863">
        <ele>358.777</ele>
        <time>2012-03-16T10:55:30Z</time>
      </trkpt>
      <trkpt lat="47.28798" lon="4.98883">
        <ele>358.553</ele>
        <time>2012-03-16T10:55:41Z</time>
      </trkpt>
      <trkpt lat="47.28793" lon="4.98905">
        <ele>358.033</ele>
        <time>2012-03-16T10:55:52Z</time>
      </trkpt>
      <trkpt lat="47.28787" lon="4.98927">
        <ele>355.413</ele>
        <time>2012-03-16T10:56:03Z</time>
      </trkpt>
      <trkpt lat="47.28785" lon="4.98952">
        <ele>355.04</ele>
        <time>2012-03-16T10:56:14Z</time>
      </trkpt>
      <trkpt lat="47.28775" lon="4.98972">
        <ele>352.976</ele>
        <time>2012-03-16T10:56:25Z</time>
      </trkpt>
      <trkpt lat="47.28765" lon="4.98995">
        <ele>351.304</ele>
        <time>2012-03-16T10:56:36Z</time>
      </trkpt>
      <trkpt lat="47.28757" lon="4.99015">
        <ele>348.561</ele>
        <time>2012-03-16T10:56:47Z</time>
      </trkpt>
      <trkpt lat="47.28743" lon="4.99032">
        <ele>345.896</ele>
        <time>2012-03-16T10:56:58Z</time>
      </trkpt>
      <trkpt lat="47.28737" lon="4.99053">
        <ele>343.985</ele>
        <time>2012-03-16T10:57:09Z</time>
      </trkpt>
      <trkpt lat="47.28733" lon="4.99078">
        <ele>340.753</ele>
        <time>2012-03-16T10:57:20Z</time>
      </trkpt>
      <trkpt lat="47.28725" lon="4.99098">
        <ele>338.916</ele>
        <time>2012-03-16T10:57:31Z</time>
      </trkpt>
      <trkpt lat="47.28712" lon="4.99113">
        <ele>338.583</ele>
        <time>2012-03-16T10:57:42Z</time>
      </trkpt>
      <trkpt lat="47.28697" lon="4.99127">
        <ele>337.096</ele>
        <time>2012-03-16T10:57:53Z</time>
      </trkpt>
      <trkpt lat="47.28693" lon="4.99145">
        <ele>335.343</ele>
        <time>2012-03-16T10:58:04Z</time>
      </trkpt>
      <trkpt lat="47.28698" lon="4.99165">
        <ele>335.675</ele>
        <time>2012-03-16T10:58:15Z</time>
      </trkpt>
      <trkpt lat="47.28702" lon="4.99188">
        <ele>334.881</ele>
        <time>2012-03-16T10:58:26Z</time>
      </trkpt>
      <trkpt lat="47.28697" lon="4.99207">
        <ele>335.331</ele>
        <time>2012-03-16T10:58:37Z</time>
      </trkpt>
      <trkpt lat="47.28688" lon="4.9922">
        <ele>334.863</ele>
        <time>2012-03-16T10:58:48Z</time>
      </trkpt>
      <trkpt lat="47.28678" lon="4.9923">
        <ele>334.183</ele>
        <time>2012-03-16T10:58:59Z</time>
      </trkpt>
      <trkpt lat="47.28667" lon="4.99222">
        <ele>334.6</ele>
        <time>2012-03-16T10:59:10Z</time>
      </trkpt>
      <trkpt lat="47.28657" lon="4.99215">
        <ele>334.531</ele>
        <time>2012-03-16T10:59:21Z</time>
      </trkpt>
      <trkpt lat="47.28647" lon="4.99205">
        <ele>335.593</ele>
        <time>2012-03-16T10:59:32Z</time>
      </trkpt>
      <trkpt lat="47.2864" lon="4.99197">
        <ele>336.423</ele>
        <time>2012-03-16T10:59:43Z</time>
      </trkpt>
      <trkpt lat="47.28635" lon="4.99192">
        <ele>336.429</ele>
        <time>2012-03-16T10:59:54Z</time>
      </trkpt>
      <trkpt lat="47.28627" lon="4.99183">
        <ele>337.811</ele>
        <time>2012-03-16T11:00:05Z</time>
      </trkpt>
      <trkpt lat="47.28617" lon="4.99173">
        <ele>338.953</ele>
        <time>2012-03-16T11:00:16Z</time>
      </trkpt>
      <trkpt lat="47.28607" lon="4.99165">
        <ele>339.126</ele>
        <time>2012-03-16T11:00:27Z</time>
      </trkpt>
      <trkpt lat="47.28597" lon="4.99148">
        <ele>339.996</ele>
        <time>2012-03-16T11:00:38Z</time>
      </trkpt>
      <trkpt lat="47.28588" lon="4.99142">
        <ele>340.969</ele>
        <time>2012-03-16T11:00:49Z</time>
      </trkpt>
      <trkpt lat="47.28577" lon="4.99132">
        <ele>340.114</ele>
        <time>2012-03-16T11:01:00Z</time>
      </trkpt>
      <trkpt lat="47.28562" lon="4.99122">
        <ele>339.918</ele>
        <time>2012-03-16T11:01:11Z</time>
      </trkpt>
      <trkpt lat="47.28553" lon="4.99112">
        <ele>341.036</ele>
        <time>2012-03-16T11:01:22Z</time>
      </trkpt>
      <trkpt lat="47.28542" lon="4.99095">
        <ele>341.949</ele>
        <time>2012-03-16T11:01:33Z</time>
      </trkpt>
      <trkpt lat="47.28532" lon="4.99085">
        <ele>341.968</ele>
        <time>2012-03-16T11:01:44Z</time>
      </trkpt>
      <trkpt lat="47.28523" lon="4.99072">
        <ele>339.143</ele>
        <time>2012-03-16T11:01:55Z</time>
      </trkpt>
      <trkpt lat="47.28512" lon="4.99057">
        <ele>337.784</ele>
        <time>2012-03-16T11:02:06Z</time>
      </trkpt>
      <trkpt lat="47.28498" lon="4.99042">
        <ele>336.064</ele>
        <time>2012-03-16T11:02:17Z</time>
      </trkpt>
      <trkpt lat="47.28483" lon="4.99027">
        <ele>334.731</ele>
        <time>2012-03-16T11:02:28Z</time>
      </trkpt>
      <trkpt lat="47.2847" lon="4.99015">
        <ele>334.759</ele>
        <time>2012-03-16T11:02:39Z</time>
      </trkpt>
      <trkpt lat="47.28455" lon="4.99">
        <ele>331.382</ele>
        <time>2012-03-16T11:02:50Z</time>
      </trkpt>
      <trkpt lat="47.28442" lon="4.98988">
        <ele>330.202</ele>
        <time>2012-03-16T11:03:01Z</time>
      </trkpt>
      <trkpt lat="47.2843" lon="4.98975">
        <ele>327.901</ele>
        <time>2012-03-16T11:03:12Z</time>
      </trkpt>
      <trkpt lat="47.28417" lon="4.98963">
        <ele>321.353</ele>
        <time>2012-03-16T11:03:23Z</time>
      </trkpt>
      <trkpt lat="47.2841" lon="4.98973">
        <ele>322.6</ele>
        <time>2012-03-16T11:03:34Z</time>
      </trkpt>
      <trkpt lat="47.2841" lon="4.98988">
        <ele>324.48</ele>
        <time>2012-03-16T11:03:45Z</time>
      </trkpt>
      <trkpt lat="47.2841" lon="4.99002">
        <ele>326.099</ele>
        <time>2012-03-16T11:03:56Z</time>
      </trkpt>
      <trkpt lat="47.28412" lon="4.9901">
        <ele>326.757</ele>
        <time>2012-03-16T11:04:07Z</time>
      </trkpt>
      <trkpt lat="47.2841" lon="4.99028">
        <ele>329.35</ele>
        <time>2012-03-16T11:04:18Z</time>
      </trkpt>
      <trkpt lat="47.28412" lon="4.99043">
        <ele>329.639</ele>
        <time>2012-03-16T11:04:29Z</time>
      </trkpt>
      <trkpt lat="47.28412" lon="4.99063">
        <ele>329.858</ele>
        <time>2012-03-16T11:04:40Z</time>
      </trkpt>
      <trkpt lat="47.28415" lon="4.9908">
        <ele>333.452</ele>
        <time>2012-03-16T11:04:51Z</time>
      </trkpt>
      <trkpt lat="47.28418" lon="4.99098">
        <ele>334.289</ele>
        <time>2012-03-16T11:05:02Z</time>
      </trkpt>
      <trkpt lat="47.28418" lon="4.99118">
        <ele>332.901</ele>
        <time>2012-03-16T11:05:13Z</time>
      </trkpt>
      <trkpt lat="47.28423" lon="4.9914">
        <ele>334.017</ele>
        <time>2012-03-16T11:05:24Z</time>
      </trkpt>
      <trkpt lat="47.28427" lon="4.9916">
        <ele>334.724</ele>
        <time>2012-03-16T11:05:35Z</time>
      </trkpt>
      <trkpt lat="47.28432" lon="4.99175">
        <ele>335.642</ele>
        <time>2012-03-16T11:05:46Z</time>
      </trkpt>
      <trkpt lat="47.28435" lon="4.99195">
        <ele>334.905</ele>
        <time>2012-03-16T11:05:57Z</time>
      </trkpt>
      <trkpt lat="47.28438" lon="4.99213">
        <ele>334.822</ele>
        <time>2012-03-16T11:06:08Z</time>
      </trkpt>
      <trkpt lat="47.28445" lon="4.9923">
        <ele>335.823</ele>
        <time>2012-03-16T11:06:19Z</time>
      </trkpt>
      <trkpt lat="47.28453" lon="4.99243">
        <ele>333.521</ele>
        <time>2012-03-16T11:06:30Z</time>
      </trkpt>
      <trkpt lat="47.2846" lon="4.9926">
        <ele>333.513</ele>
        <time>2012-03-16T11:06:41Z</time>
      </trkpt>
      <trkpt lat="47.28468" lon="4.99275">
        <ele>332.122</ele>
        <time>2012-03-16T11:06:52Z</time>
      </trkpt>
      <trkpt lat="47.28478" lon="4.99292">
        <ele>331.267</ele>
        <time>2012-03-16T11:07:03Z</time>
      </trkpt>
      <trkpt lat="47.28488" lon="4.99305">
        <ele>330.88</ele>
        <time>2012-03-16T11:07:14Z</time>
      </trkpt>
      <trkpt lat="47.28498" lon="4.9932">
        <ele>330.33</ele>
        <time>2012-03-16T11:07:25Z</time>
      </trkpt>
      <trkpt lat="47.28507" lon="4.99327">
        <ele>330.649</ele>
        <time>2012-03-16T11:07:36Z</time>
      </trkpt>
      <trkpt lat="47.28515" lon="4.99337">
        <ele>330.144</ele>
        <time>2012-03-16T11:07:47Z</time>
      </trkpt>
      <trkpt lat="47.28518" lon="4.99355">
        <ele>328.652</ele>
        <time>2012-03-16T11:07:58Z</time>
      </trkpt>
      <trkpt lat="47.28525" lon="4.99373">
        <ele>327.014</ele>
        <time>2012-03-16T11:08:09Z</time>
      </trkpt>
      <trkpt lat="47.28527" lon="4.99397">
        <ele>324.404</ele>
        <time>2012-03-16T11:08:20Z</time>
      </trkpt>
      <trkpt lat="47.28525" lon="4.99407">
        <ele>323.303</ele>
        <time>2012-03-16T11:08:31Z</time>
      </trkpt>
      <trkpt lat="47.28528" lon="4.99428">
        <ele>322.097</ele>
        <time>2012-03-16T11:08:42Z</time>
      </trkpt>
      <trkpt lat="47.2854" lon="4.99445">
        <ele>319.173</ele>
        <time>2012-03-16T11:08:53Z</time>
      </trkpt>
      <trkpt lat="47.28543" lon="4.99465">
        <ele>318.024</ele>
        <time>2012-03-16T11:09:04Z</time>
      </trkpt>
      <trkpt lat="47.28555" lon="4.99482">
        <ele>315.707</ele>
        <time>2012-03-16T11:09:15Z</time>
      </trkpt>
      <trkpt lat="47.28565" lon="4.99493">
        <ele>311.719</ele>
        <time>2012-03-16T11:09:26Z</time>
      </trkpt>
      <trkpt lat="47.28577" lon="4.99503">
        <ele>309.887</ele>
        <time>2012-03-16T11:09:37Z</time>
      </trkpt>
      <trkpt lat="47.2858" lon="4.99518">
        <ele>308.039</ele>
        <time>2012-03-16T11:09:48Z</time>
      </trkpt>
      <trkpt lat="47.28577" lon="4.9954">
        <ele>306.706</ele>
        <time>2012-03-16T11:09:59Z</time>
      </trkpt>
      <trkpt lat="47.28573" lon="4.99563">
        <ele>305.367</ele>
        <time>2012-03-16T11:10:10Z</time>
      </trkpt>
      <trkpt lat="47.28568" lon="4.99582">
        <ele>303.389</ele>
        <time>2012-03-16T11:10:21Z</time>
      </trkpt>
      <trkpt lat="47.28563" lon="4.99598">
        <ele>300.715</ele>
        <time>2012-03-16T11:10:32Z</time>
      </trkpt>
      <trkpt lat="47.28557" lon="4.99617">
        <ele>296.005</ele>
        <time>2012-03-16T11:10:43Z</time>
      </trkpt>
      <trkpt lat="47.28553" lon="4.99623">
        <ele>295.24</ele>
        <time>2012-03-16T11:10:54Z</time>
      </trkpt>
      <trkpt lat="47.2855" lon="4.99643">
        <ele>293.035</ele>
        <time>2012-03-16T11:11:05Z</time>
      </trkpt>
      <trkpt lat="47.28553" lon="4.99663">
        <ele>290.74</ele>
        <time>2012-03-16T11:11:16Z</time>
      </trkpt>
      <trkpt lat="47.28565" lon="4.99677">
        <ele>289.699</ele>
        <time>2012-03-16T11:11:27Z</time>
      </trkpt>
      <trkpt lat="47.28578" lon="4.99687">
        <ele>288.349</ele>
        <time>2012-03-16T11:11:38Z</time>
      </trkpt>
      <trkpt lat="47.28593" lon="4.99695">
        <ele>286.649</ele>
        <time>2012-03-16T11:11:49Z</time>
      </trkpt>
      <trkpt lat="47.28607" lon="4.99703">
        <ele>285.813</ele>
        <time>2012-03-16T11:12:00Z</time>
      </trkpt>
      <trkpt lat="47.28622" lon="4.99712">
        <ele>286.4</ele>
        <time>2012-03-16T11:12:11Z</time>
      </trkpt>
      <trkpt lat="47.28637" lon="4.99718">
        <ele>285.904</ele>
        <time>2012-03-16T11:12:22Z</time>
      </trkpt>
      <trkpt lat="47.2865" lon="4.99727">
        <ele>285.229</ele>
        <time>2012-03-16T11:12:33Z</time>
      </trkpt>
      <trkpt lat="47.28665" lon="4.99737">
        <ele>285.862</ele>
        <time>2012-03-16T11:12:44Z</time>
      </trkpt>
      <trkpt lat="47.2868" lon="4.99747">
        <ele>285.457</ele>
        <time>2012-03-16T11:12:55Z</time>
      </trkpt>
      <trkpt lat="47.28692" lon="4.99757">
        <ele>285.969</ele>
        <time>2012-03-16T11:13:06Z</time>
      </trkpt>
      <trkpt lat="47.28705" lon="4.99768">
        <ele>288.503</ele>
        <time>2012-03-16T11:13:17Z</time>
      </trkpt>
      <trkpt lat="47.28718" lon="4.9978">
        <ele>289.76</ele>
        <time>2012-03-16T11:13:28Z</time>
      </trkpt>
      <trkpt lat="47.28732" lon="4.99792">
        <ele>291.438</ele>
        <time>2012-03-16T11:13:39Z</time>
      </trkpt>
      <trkpt lat="47.28747" lon="4.998">
        <ele>292.637</ele>
        <time>2012-03-16T11:13:50Z</time>
      </trkpt>
      <trkpt lat="47.28762" lon="4.9981">
        <ele>293.2</ele>
        <time>2012-03-16T11:14:01Z</time>
      </trkpt>
      <trkpt lat="47.28777" lon="4.99817">
        <ele>291.638</ele>
        <time>2012-03-16T11:14:12Z</time>
      </trkpt>
      <trkpt lat="47.28793" lon="4.99822">
        <ele>290.219</ele>
        <time>2012-03-16T11:14:23Z</time>
      </trkpt>
      <trkpt lat="47.28808" lon="4.99828">
        <ele>290.293</ele>
        <time>2012-03-16T11:14:34Z</time>
      </trkpt>
      <trkpt lat="47.28822" lon="4.99835">
        <ele>290.889</ele>
        <time>2012-03-16T11:14:45Z</time>
      </trkpt>
      <trkpt lat="47.28837" lon="4.99843">
        <ele>291.132</ele>
        <time>2012-03-16T11:14:56Z</time>
      </trkpt>
      <trkpt lat="47.28852" lon="4.9985">
        <ele>293.09</ele>
        <time>2012-03-16T11:15:07Z</time>
      </trkpt>
      <trkpt lat="47.28865" lon="4.99858">
        <ele>292.782</ele>
        <time>2012-03-16T11:15:18Z</time>
      </trkpt>
      <trkpt lat="47.2888" lon="4.99865">
        <ele>293.133</ele>
        <time>2012-03-16T11:15:29Z</time>
      </trkpt>
      <trkpt lat="47.28897" lon="4.9987">
        <ele>292.573</ele>
        <time>2012-03-16T11:15:40Z</time>
      </trkpt>
      <trkpt lat="47.28912" lon="4.99875">
        <ele>291.297</ele>
        <time>2012-03-16T11:15:51Z</time>
      </trkpt>
      <trkpt lat="47.28927" lon="4.99882">
        <ele>289.706</ele>
        <time>2012-03-16T11:16:02Z</time>
      </trkpt>
      <trkpt lat="47.28943" lon="4.99885">
        <ele>289.433</ele>
        <time>2012-03-16T11:16:13Z</time>
      </trkpt>
      <trkpt lat="47.28958" lon="4.99892">
        <ele>288.302</ele>
        <time>2012-03-16T11:16:24Z</time>
      </trkpt>
      <trkpt lat="47.28973" lon="4.999">
        <ele>287.911</ele>
        <time>2012-03-16T11:16:35Z</time>
      </trkpt>
      <trkpt lat="47.28987" lon="4.99908">
        <ele>287.43</ele>
        <time>2012-03-16T11:16:46Z</time>
      </trkpt>
      <trkpt lat="47.29" lon="4.99918">
        <ele>287.6</ele>
        <time>2012-03-16T11:16:57Z</time>
      </trkpt>
      <trkpt lat="47.29015" lon="4.99928">
        <ele>287.384</ele>
        <time>2012-03-16T11:17:08Z</time>
      </trkpt>
      <trkpt lat="47.29027" lon="4.99938">
        <ele>286.946</ele>
        <time>2012-03-16T11:17:19Z</time>
      </trkpt>
      <trkpt lat="47.2904" lon="4.99948">
        <ele>288.378</ele>
        <time>2012-03-16T11:17:30Z</time>
      </trkpt>
      <trkpt lat="47.29053" lon="4.99958">
        <ele>289.541</ele>
        <time>2012-03-16T11:17:41Z</time>
      </trkpt>
      <trkpt lat="47.29068" lon="4.99968">
        <ele>289.863</ele>
        <time>2012-03-16T11:17:52Z</time>
      </trkpt>
      <trkpt lat="47.29082" lon="4.99982">
        <ele>289.104</ele>
        <time>2012-03-16T11:18:03Z</time>
      </trkpt>
      <trkpt lat="47.2908" lon="5.00003">
        <ele>289.51</ele>
        <time>2012-03-16T11:18:14Z</time>
      </trkpt>
      <trkpt lat="47.29077" lon="5.00027">
        <ele>288.757</ele>
        <time>2012-03-16T11:18:25Z</time>
      </trkpt>
      <trkpt lat="47.2907" lon="5.00053">
        <ele>288.178</ele>
        <time>2012-03-16T11:18:36Z</time>
      </trkpt>
      <trkpt lat="47.29065" lon="5.00077">
        <ele>286.958</ele>
        <time>2012-03-16T11:18:47Z</time>
      </trkpt>
      <trkpt lat="47.2906" lon="5.001">
        <ele>284.837</ele>
        <time>2012-03-16T11:18:58Z</time>
      </trkpt>
      <trkpt lat="47.29055" lon="5.00122">
        <ele>283.737</ele>
        <time>2012-03-16T11:19:09Z</time>
      </trkpt>
      <trkpt lat="47.2905" lon="5.00145">
        <ele>281.924</ele>
        <time>2012-03-16T11:19:20Z</time>
      </trkpt>
      <trkpt lat="47.29053" lon="5.00163">
        <ele>281.925</ele>
        <time>2012-03-16T11:19:31Z</time>
      </trkpt>
      <trkpt lat="47.29068" lon="5.00168">
        <ele>283.859</ele>
        <time>2012-03-16T11:19:42Z</time>
      </trkpt>
      <trkpt lat="47.29082" lon="5.00173">
        <ele>284.649</ele>
        <time>2012-03-16T11:19:53Z</time>
      </trkpt>
      <trkpt lat="47.29095" lon="5.00178">
        <ele>284.786</ele>
        <time>2012-03-16T11:20:04Z</time>
      </trkpt>
      <trkpt lat="47.29108" lon="5.00182">
        <ele>286.378</ele>
        <time>2012-03-16T11:20:15Z</time>
      </trkpt>
      <trkpt lat="47.2912" lon="5.00187">
        <ele>287.164</ele>
        <time>2012-03-16T11:20:26Z</time>
      </trkpt>
      <trkpt lat="47.29137" lon="5.00193">
        <ele>284.854</ele>
        <time>2012-03-16T11:20:37Z</time>
      </trkpt>
      <trkpt lat="47.2915" lon="5.00195">
        <ele>284.805</ele>
        <time>2012-03-16T11:20:48Z</time>
      </trkpt>
      <trkpt lat="47.29163" lon="5.00183">
        <ele>284.915</ele>
        <time>2012-03-16T11:20:59Z</time>
      </trkpt>
      <trkpt lat="47.2917" lon="5.0018">
        <ele>286.018</ele>
        <time>2012-03-16T11:21:10Z</time>
      </trkpt>
      <trkpt lat="47.29175" lon="5.00185">
        <ele>287.986</ele>
        <time>2012-03-16T11:21:21Z</time>
      </trkpt>
      <trkpt lat="47.29182" lon="5.00198">
        <ele>291.829</ele>
        <time>2012-03-16T11:21:32Z</time>
      </trkpt>
      <trkpt lat="47.29192" lon="5.0021">
        <ele>290.155</ele>
        <time>2012-03-16T11:21:43Z</time>
      </trkpt>
      <trkpt lat="47.29198" lon="5.0023">
        <ele>290.067</ele>
        <time>2012-03-16T11:21:54Z</time>
      </trkpt>
      <trkpt lat="47.2919" lon="5.00247">
        <ele>287.604</ele>
        <time>2012-03-16T11:22:05Z</time>
      </trkpt>
      <trkpt lat="47.29188" lon="5.0027">
        <ele>288.142</ele>
        <time>2012-03-16T11:22:16Z</time>
      </trkpt>
      <trkpt lat="47.29187" lon="5.00292">
        <ele>291.083</ele>
        <time>2012-03-16T11:22:27Z</time>
      </trkpt>
      <trkpt lat="47.29182" lon="5.00312">
        <ele>289.617</ele>
        <time>2012-03-16T11:22:38Z</time>
      </trkpt>
      <trkpt lat="47.2918" lon="5.00335">
        <ele>286.786</ele>
        <time>2012-03-16T11:22:49Z</time>
      </trkpt>
      <trkpt lat="47.29187" lon="5.00355">
        <ele>288.142</ele>
        <time>2012-03-16T11:23:00Z</time>
      </trkpt>
      <trkpt lat="47.29193" lon="5.0036">
        <ele>289.009</ele>
        <time>2012-03-16T11:23:11Z</time>
      </trkpt>
      <trkpt lat="47.29192" lon="5.00367">
        <ele>289.647</ele>
        <time>2012-03-16T11:23:22Z</time>
      </trkpt>
      <trkpt lat="47.29192" lon="5.00387">
        <ele>289.358</ele>
        <time>2012-03-16T11:23:33Z</time>
      </trkpt>
      <trkpt lat="47.29188" lon="5.00407">
        <ele>289.119</ele>
        <time>2012-03-16T11:23:44Z</time>
      </trkpt>
      <trkpt lat="47.29187" lon="5.0041">
        <ele>296.74</ele>
        <time>2012-03-16T11:23:55Z</time>
      </trkpt>
      <trkpt lat="47.29192" lon="5.00417">
        <ele>304.808</ele>
        <time>2012-03-16T11:24:06Z</time>
      </trkpt>
      <trkpt lat="47.29208" lon="5.00447">
        <ele>304.789</ele>
        <time>2012-03-16T11:24:17Z</time>
      </trkpt>
      <trkpt lat="47.2921" lon="5.0047">
        <ele>301.392</ele>
        <time>2012-03-16T11:24:28Z</time>
      </trkpt>
      <trkpt lat="47.29217" lon="5.00495">
        <ele>295.457</ele>
        <time>2012-03-16T11:24:39Z</time>
      </trkpt>
      <trkpt lat="47.29223" lon="5.00523">
        <ele>288.457</ele>
        <time>2012-03-16T11:24:50Z</time>
      </trkpt>
      <trkpt lat="47.29225" lon="5.00542">
        <ele>282.386</ele>
        <time>2012-03-16T11:25:01Z</time>
      </trkpt>
      <trkpt lat="47.29233" lon="5.0056">
        <ele>279.339</ele>
        <time>2012-03-16T11:25:12Z</time>
      </trkpt>
    </trkseg>
  </trk>
</gpx>